Flight Track Log - Related Links

Times and Time Zones

All times are in EDT time to prevent confusion due to time zone crossing. See the VH-OEJ flight status page for this flight to view local times or setup timezone preferences in your user account.


Time Position Orientation Groundspeed Altitude Reporting Facility
EDT Latitude Longitude Course Direction KTS MPH feet Rate Location/Type
Fri 08:39:02 PM -27.4060 153.1090 North 3 3  Level FlightAware ADS-B
Fri 08:43:07 PM -27.4070 153.1100 138° Southeast 10 12 61 Level FlightAware ADS-B
Fri 08:43:22 PM -27.4060 153.1100 360° North 12 14 84 Level FlightAware ADS-B
Fri 08:43:47 PM -27.4050 153.1110 42° Northeast 9 10 86 Level FlightAware ADS-B
Fri 08:44:27 PM -27.4050 153.1130 90° East 10 12 89 Level FlightAware ADS-B
Fri 08:45:07 PM -27.4030 153.1150 42° Northeast 17 20 96 Level FlightAware ADS-B
Fri 08:45:52 PM -27.4000 153.1160 16° North 17 20 103 Level FlightAware ADS-B
Fri 08:46:22 PM -27.3970 153.1180 31° Northeast 16 18 113 Level FlightAware ADS-B
Fri 08:46:52 PM -27.3950 153.1190 24° Northeast 18 21 120 Level FlightAware ADS-B
Fri 08:47:17 PM -27.3940 153.1200 42° Northeast 17 20 129 Level FlightAware ADS-B
Fri 08:47:47 PM -27.3910 153.1210 16° North 21 24 137 Level FlightAware ADS-B
Fri 08:48:12 PM -27.3890 153.1230 42° Northeast 22 25 148 Level FlightAware ADS-B
Fri 08:48:42 PM -27.3870 153.1240 24° Northeast 16 18 159 Level FlightAware ADS-B
Fri 08:49:37 PM -27.3820 153.1270 28° Northeast 23 26 174 Level FlightAware ADS-B
Fri 08:50:07 PM -27.3790 153.1280 16° North 23 26 212 Level FlightAware ADS-B
Fri 08:50:32 PM -27.3770 153.1290 24° Northeast 17 20 240 Level FlightAware ADS-B
Fri 08:51:02 PM -27.3750 153.1300 24° Northeast 14 16 270 Level FlightAware ADS-B
Fri 08:51:17 PM -27.3740 153.1310 42° Northeast 15 17 318 Level FlightAware ADS-B
Fri 08:52:07 PM -27.3730 153.1330 61° Northeast 14 16 348 Level FlightAware ADS-B
Fri 08:52:47 PM -27.3750 153.1340 156° South 29 33 514 Level FlightAware ADS-B
Fri 08:53:27 PM -27.3930 153.1240 206° Southwest 175 201 831 Level FlightAware ADS-B
Fri 08:53:52 PM -27.4130 153.1130 206° Southwest 183 211 900 1,920 Climbing FlightAware ADS-B
Fri 08:54:17 PM -27.4330 153.1020 206° Southwest 196 226 1,600 1,814 Climbing FlightAware ADS-B
Fri 08:54:35 PM -27.4512 153.0928 206° Southwest 194 223 2,200 1,400 Climbing Aus ATC (RADAR)
Fri 08:54:47 PM -27.4580 153.0900 206° Southwest 199 229 2,300 1,111 Climbing FlightAware ADS-B
Fri 08:55:02 PM -27.4710 153.0840 202° Southwest 202 232 2,700 1,350 Climbing FlightAware ADS-B
Fri 08:55:27 PM -27.4920 153.0720 207° Southwest 205 236 3,200 1,200 Climbing FlightAware ADS-B
Fri 08:55:42 PM -27.5010 153.0590 232° Southwest 205 236 3,500 800 Climbing FlightAware ADS-B
Fri 08:55:57 PM -27.5030 153.0440 261° West 215 247 3,600 600 Climbing FlightAware ADS-B
Fri 08:56:12 PM -27.4990 153.0270 285° West 225 259 3,800 720 Climbing FlightAware ADS-B
Fri 08:56:22 PM -27.4930 153.0180 307° West 236 272 3,900 720 Climbing FlightAware ADS-B
Fri 08:56:37 PM -27.4780 153.0080 329° Northwest 252 290 4,100 600 Climbing FlightAware ADS-B
Fri 08:56:52 PM -27.4590 153.0060 355° North 269 310 4,200 1,467 Climbing FlightAware ADS-B
Fri 08:57:22 PM -27.4210 153.0090 North 273 314 5,200 1,855 Climbing FlightAware ADS-B
Fri 08:57:47 PM -27.3880 153.0120 North 285 328 5,900 1,500 Climbing FlightAware ADS-B
Fri 08:58:14 PM -27.3452 153.0175 North 297 342 6,500 1,200 Climbing Aus ATC (RADAR)
Fri 08:58:17 PM -27.3480 153.0170 North 314 361 6,500 667 Level FlightAware ADS-B
Fri 08:58:32 PM -27.3260 153.0270 22° Northeast 335 386 6,700 1,125 Climbing FlightAware ADS-B
Fri 08:58:49 PM -27.2945 153.0427 22° Northeast 341 392 7,100 1,440 Climbing Aus ATC (RADAR)
Fri 08:58:57 PM -27.2900 153.0450 22° Northeast 357 411 7,300 1,263 Climbing FlightAware ADS-B
Fri 08:59:27 PM -27.2500 153.0820 39° Northeast 390 449 7,900 1,067 Climbing FlightAware ADS-B
Fri 08:59:42 PM -27.2370 153.1090 62° Northeast 406 467 8,100 1,650 Climbing FlightAware ADS-B
Fri 09:00:07 PM -27.2260 153.1620 77° East 414 476 9,000 2,123 Climbing FlightAware ADS-B
Fri 09:00:47 PM -27.2200 153.2460 85° East 424 488 10,400 2,239 Climbing FlightAware ADS-B
Fri 09:01:14 PM -27.2159 153.3179 85° East 425 489 11,500 2,267 Climbing Aus ATC (RADAR)
Fri 09:01:32 PM -27.2140 153.3460 85° East 431 496 12,100 2,229 Climbing FlightAware ADS-B
Fri 09:01:49 PM -27.2088 153.3963 85° East 430 495 12,800 2,250 Climbing Aus ATC (RADAR)
Fri 09:02:12 PM -27.2050 153.4390 85° East 440 506 13,600 2,000 Climbing FlightAware ADS-B
Fri 09:02:49 PM -27.1874 153.5315 85° East 442 509 14,800 1,800 Climbing Aus ATC (RADAR)
Fri 09:02:52 PM -27.1880 153.5270 85° East 453 521 14,800 1,950 Level FlightAware ADS-B
Fri 09:03:29 PM -27.1462 153.6154 85° East 458 527 16,100 2,000 Climbing Aus ATC (RADAR)
Fri 09:03:37 PM -27.1420 153.6230 85° East 463 533 16,300 1,625 Climbing FlightAware ADS-B
Fri 09:04:17 PM -27.0950 153.7060 58° Northeast 477 549 17,400 1,765 Climbing FlightAware ADS-B
Fri 09:05:02 PM -27.0420 153.7990 57° Northeast 486 559 18,800 1,694 Climbing FlightAware ADS-B
Fri 09:05:42 PM -26.9910 153.8870 57° Northeast 501 577 19,800 1,760 Climbing FlightAware ADS-B
Fri 09:06:17 PM -26.9470 153.9640 57° Northeast 503 579 21,000 2,000 Climbing FlightAware ADS-B
Fri 09:06:39 PM -26.9147 154.0204 57° Northeast 502 578 21,700 1,733 Climbing Aus ATC (RADAR)
Fri 09:07:02 PM -26.8910 154.0610 57° Northeast 510 587 22,300 1,524 Climbing FlightAware ADS-B
Fri 09:07:42 PM -26.8390 154.1530 58° Northeast 518 596 23,300 1,548 Climbing FlightAware ADS-B
Fri 09:08:04 PM -26.8054 154.2115 58° Northeast 517 595 23,900 1,500 Climbing Aus ATC (RADAR)
Fri 09:08:22 PM -26.7870 154.2440 58° Northeast 525 604 24,300 1,371 Climbing FlightAware ADS-B
Fri 09:08:39 PM -26.7591 154.2914 58° Northeast 523 602 24,700 1,400 Climbing Aus ATC (RADAR)
Fri 09:08:52 PM -26.7470 154.3130 58° Northeast 530 610 25,000 1,132 Climbing FlightAware ADS-B
Fri 09:09:32 PM -26.6940 154.4040 57° Northeast 541 623 25,700 1,037 Climbing FlightAware ADS-B
Fri 09:10:13 PM -26.6303 154.5144 57° Northeast 545 627 26,400 1,067 Climbing Aus ATC (RADAR)
Fri 09:10:17 PM -26.6330 154.5110 57° Northeast 551 634 26,500 1,636 Climbing FlightAware ADS-B
Fri 09:10:57 PM -26.5800 154.6020 57° Northeast 549 632 27,600 1,818 Climbing FlightAware ADS-B
Fri 09:11:23 PM -26.5338 154.6808 57° Northeast 541 623 28,500 1,800 Climbing Aus ATC (RADAR)
Fri 09:11:37 PM -26.5210 154.7010 57° Northeast 544 626 28,800 1,600 Climbing FlightAware ADS-B
Fri 09:11:38 PM -26.5134 154.7163 57° Northeast 541 623 28,900 1,333 Climbing Aus ATC (RADAR)
Fri 09:12:13 PM -26.4655 154.7988 57° Northeast 539 620 29,600 1,231 Climbing Aus ATC (RADAR)
Fri 09:12:17 PM -26.4670 154.7950 57° Northeast 543 625 29,700 1,224 Climbing FlightAware ADS-B
Fri 09:13:02 PM -26.4010 154.9080 57° Northeast 542 624 30,600 918 Climbing FlightAware ADS-B
Fri 09:13:42 PM -26.3460 155.0020 57° Northeast 542 624 31,000 300 Climbing FlightAware ADS-B
Fri 09:14:22 PM -26.2950 155.0920 58° Northeast 543 625 31,000 -98 Level FlightAware ADS-B
Fri 09:14:43 PM -26.2598 155.1497 58° Northeast 537 618 30,900  Descending Aus ATC (RADAR)
Fri 09:15:12 PM -26.2270 155.2060 58° Northeast 544 626 31,000 87 Climbing FlightAware ADS-B
Fri 09:15:52 PM -26.1760 155.2910 56° Northeast 544 626 31,000  Level FlightAware ADS-B
Fri 09:16:32 PM -26.1280 155.3710 56° Northeast 544 626 31,000  Level FlightAware ADS-B
Fri 09:17:12 PM -26.0800 155.4500 56° Northeast 544 626 31,000 -146 Level FlightAware ADS-B
Fri 09:17:13 PM -26.0531 155.5017 56° Northeast 539 620 30,900 -375 Descending Aus ATC (RADAR)
Fri 09:17:28 PM -26.0325 155.5371 56° Northeast 540 621 30,900 122 Level Aus ATC (RADAR)
Fri 09:18:02 PM -26.0200 155.5480 56° Northeast 544 626 31,000 81 Climbing FlightAware ADS-B
Fri 09:18:42 PM -25.9720 155.6270 56° Northeast 544 626 31,000 -98 Level FlightAware ADS-B
Fri 09:19:03 PM -25.9006 155.7595 56° Northeast 538 619 30,900  Descending Aus ATC (RADAR)
Fri 09:19:22 PM -25.9250 155.7060 56° Northeast 544 626 31,000  Climbing FlightAware ADS-B
Fri 09:19:38 PM -25.8517 155.8409 56° Northeast 538 619 30,900  Descending Aus ATC (RADAR)
Fri 09:20:02 PM -25.8770 155.7850 56° Northeast 544 626 31,000 94 Climbing FlightAware ADS-B
Fri 09:20:42 PM -25.8290 155.8640 56° Northeast 544 626 31,000 -109 Level FlightAware ADS-B
Fri 09:20:57 PM -25.7397 156.0275 56° Northeast 539 620 30,900 -200 Descending Aus ATC (RADAR)
Fri 09:21:12 PM -25.7188 156.0625 56° Northeast 540 621 30,900 240 Level Aus ATC (RADAR)
Fri 09:21:22 PM -25.7810 155.9430 56° Northeast 544 626 31,000  Climbing FlightAware ADS-B
Fri 09:22:12 PM -25.6513 156.2149 56° Northeast 537 618 30,900  Descending Aus ATC (RADAR)
Fri 09:22:12 PM -25.7210 156.0410 56° Northeast 544 626 31,000  Climbing FlightAware ADS-B
Fri 09:22:47 PM -25.6121 156.3032 56° Northeast 538 619 30,900  Descending Aus ATC (RADAR)
Fri 09:22:52 PM -25.6730 156.1200 56° Northeast 544 626 31,000 133 Climbing FlightAware ADS-B
Fri 09:23:32 PM -25.6250 156.1980 56° Northeast 544 626 31,000  Level FlightAware ADS-B
Fri 09:23:47 PM -25.5516 156.4585 56° Northeast 535 616 31,000  Level Aus ATC (RADAR)
Fri 09:24:12 PM -25.5780 156.2770 56° Northeast 544 626 31,000  Level FlightAware ADS-B
Fri 09:25:02 PM -25.5180 156.3750 56° Northeast 544 626 31,000  Level FlightAware ADS-B
Fri 09:25:22 PM -25.4741 156.7124 56° Northeast 539 620 31,000  Level Aus ATC (RADAR)
Fri 09:26:17 PM -25.4276 156.8580 71° East 537 618 31,000  Level Aus ATC (RADAR)
Fri 09:27:12 PM -25.3806 157.0034 70° East 536 617 31,000  Level Aus ATC (RADAR)
Fri 09:27:47 PM -25.3484 157.0940 69° East 533 613 31,000  Level Aus ATC (RADAR)
Fri 09:28:22 PM -25.3193 157.1851 71° East 532 612 31,000 Level Aus ATC (RADAR)
Fri 09:31:27 PM -25.1085 157.6439 55° Northeast 31,000 Level Aus ATC (Calculated)
Fri 09:33:00 PM -25.0089 157.8589 63° Northeast  Level FlightAware Approximate
Fri 09:34:00 PM -24.9446 157.9974 63° Northeast  Level FlightAware Approximate
Fri 09:35:00 PM -24.8801 158.1358 63° Northeast  Level FlightAware Approximate
Fri 09:35:02 PM -24.8584 158.1824 54° Northeast 31,000  Level Aus ATC (Calculated)
Fri 09:37:00 PM -24.7311 158.4540 63° Northeast  Level FlightAware Approximate
Fri 09:38:00 PM -24.6661 158.5918 63° Northeast  Level FlightAware Approximate
Fri 09:38:26 PM -24.6314 158.6656 54° Northeast 31,000  Level Aus ATC (Calculated)
Fri 09:39:09 PM -24.5815 158.7711 54° Northeast 31,000 Level Aus ATC (Calculated)
Fri 09:40:00 PM -24.5293 158.8812 63° Northeast  Level FlightAware Approximate
Fri 09:41:00 PM -24.4608 159.0254 62° Northeast  Level FlightAware Approximate
Fri 09:42:00 PM -24.3953 159.1627 62° Northeast  Level FlightAware Approximate
Fri 09:43:00 PM -24.3298 159.2998 62° Northeast  Level FlightAware Approximate
Fri 09:44:00 PM -24.2641 159.4368 62° Northeast  Level FlightAware Approximate
Fri 09:44:06 PM -24.2170 159.5349 53° Northeast 31,000  Level Aus ATC (Calculated)
Fri 09:46:00 PM -24.0917 159.7946 62° Northeast  Level FlightAware Approximate
Fri 09:47:00 PM -24.0256 159.9311 62° Northeast  Level FlightAware Approximate
Fri 09:48:00 PM -23.9593 160.0675 62° Northeast  Level FlightAware Approximate
Fri 09:49:00 PM -23.8929 160.2037 62° Northeast  Level FlightAware Approximate
Fri 09:49:02 PM -23.8409 160.3101 53° Northeast 31,000  Level Aus ATC (Calculated)
Fri 09:51:00 PM -23.7099 160.5774 62° Northeast  Level FlightAware Approximate
Fri 09:52:00 PM -23.6430 160.7131 62° Northeast  Level FlightAware Approximate
Fri 09:53:00 PM -23.5761 160.8486 62° Northeast  Level FlightAware Approximate
Fri 09:53:58 PM -23.4703 161.0620 52° Northeast 31,000  Level Aus ATC (Calculated)
Fri 09:54:00 PM -23.5090 160.9840 62° Northeast  Level FlightAware Approximate
Fri 09:55:00 PM -23.4009 161.2017 62° Northeast  Level FlightAware Approximate
Fri 09:55:21 PM -23.3533 161.2971 52° Northeast 31,000  Level Aus ATC (Calculated)
Fri 09:57:00 PM -23.2419 161.5197 61° Northeast  Level FlightAware Approximate
Fri 09:58:00 PM -23.1743 161.6544 61° Northeast  Level FlightAware Approximate
Fri 09:58:54 PM -23.0886 161.8246 52° Northeast 31,000  Level Aus ATC (Calculated)
Fri 09:59:53 PM -23.0000 162.0000 52° Northeast 31,000 10 Level Aus ATC (Calculated)
Fri 10:00:00 PM -23.0139 161.9725 61° Northeast  Level FlightAware Approximate
Fri 10:01:00 PM -23.1576 162.0000 180° South  Level FlightAware Approximate
Fri 10:02:00 PM -23.0165 162.0000 North  Level FlightAware Approximate
Fri 10:03:00 PM -22.8754 162.0000 North  Level FlightAware Approximate
Fri 10:03:00 PM -22.7456 162.4385 51° Northeast 31,000  Level Aus ATC (Calculated)
Fri 10:04:00 PM -22.8209 162.3091 238° Southwest  Level FlightAware Approximate
Fri 10:04:00 PM -22.7046 162.5088 51° Northeast 31,000  Level Aus ATC (Calculated)
Fri 10:05:00 PM -22.7800 162.3795 238° Southwest  Level FlightAware Approximate
Fri 10:05:53 PM -22.5248 162.8160 51° Northeast 31,000  Level Aus ATC (Calculated)
Fri 10:06:00 PM -22.8552 162.2500 238° Southwest  Level FlightAware Approximate
Fri 10:06:29 PM -22.4708 162.9080 51° Northeast 31,000  Level Aus ATC (Calculated)
Fri 10:07:00 PM -22.6093 162.6720 238° Southwest  Level FlightAware Approximate
Fri 10:08:00 PM -22.3467 163.0966 58° Northeast  Level Estimated
Fri 10:08:54 PM -22.2497 163.2811 51° Northeast 31,000  Level Aus ATC (Calculated)
Fri 10:09:00 PM -22.4337 162.9765 232° Southwest  Level FlightAware Approximate
Fri 10:10:00 PM -22.3336 163.1400 237° Southwest  Level FlightAware Approximate
Fri 10:11:00 PM -22.4098 163.0116 237° Southwest  Level FlightAware Approximate
Fri 10:12:00 PM -22.4859 162.8830 237° Southwest  Level FlightAware Approximate
Fri 10:13:00 PM -22.4098 163.0116 57° Northeast  Level FlightAware Approximate
Fri 10:14:00 PM -22.4859 162.8830 237° Southwest  Level FlightAware Approximate
Fri 10:15:00 PM -22.4041 163.0074 57° Northeast  Level Estimated
Fri 10:16:00 PM -22.3280 163.1359 57° Northeast  Level FlightAware Approximate
Fri 10:17:00 PM -22.2518 163.2642 57° Northeast  Level FlightAware Approximate
Fri 10:18:00 PM -22.1755 163.3924 57° Northeast  Level FlightAware Approximate
Fri 10:19:00 PM -22.0991 163.5205 57° Northeast  Level FlightAware Approximate
Fri 10:20:00 PM -22.0226 163.6484 57° Northeast  Level FlightAware Approximate
Fri 10:21:00 PM -21.9460 163.7762 57° Northeast  Level FlightAware Approximate
Fri 10:22:00 PM -21.8693 163.9038 57° Northeast  Level FlightAware Approximate
Fri 10:23:00 PM -21.7925 164.0313 57° Northeast  Level FlightAware Approximate
Fri 10:24:00 PM -21.7156 164.1587 57° Northeast  Level FlightAware Approximate
Fri 10:25:00 PM -21.6386 164.2859 57° Northeast  Level FlightAware Approximate
Fri 10:26:00 PM -21.5615 164.4130 57° Northeast  Level FlightAware Approximate
Fri 10:27:00 PM -21.4844 164.5399 57° Northeast  Level FlightAware Approximate
Fri 10:28:00 PM -21.4071 164.6668 57° Northeast  Level FlightAware Approximate
Fri 10:29:00 PM -21.3297 164.7935 57° Northeast  Level FlightAware Approximate
Fri 10:30:00 PM -21.2522 164.9200 57° Northeast  Level FlightAware Approximate
Fri 10:31:00 PM -21.1747 165.0464 57° Northeast  Level FlightAware Approximate
Fri 10:32:00 PM -21.0970 165.1727 57° Northeast  Level FlightAware Approximate
Fri 10:33:00 PM -21.0192 165.2989 57° Northeast  Level FlightAware Approximate
Fri 10:34:00 PM -20.9414 165.4249 57° Northeast  Level FlightAware Approximate
Fri 10:35:00 PM -20.8634 165.5508 56° Northeast  Level FlightAware Approximate
Fri 10:36:00 PM -20.7854 165.6765 56° Northeast  Level FlightAware Approximate
Fri 10:37:00 PM -20.7073 165.8022 56° Northeast  Level FlightAware Approximate
Fri 10:38:00 PM -20.6291 165.9277 56° Northeast  Level FlightAware Approximate
Fri 10:39:00 PM -20.5508 166.0531 56° Northeast  Level FlightAware Approximate
Fri 10:40:00 PM -20.4724 166.1783 56° Northeast  Level FlightAware Approximate
Fri 10:41:00 PM -20.3939 166.3034 56° Northeast  Level FlightAware Approximate
Fri 10:42:00 PM -20.3153 166.4284 56° Northeast  Level FlightAware Approximate
Fri 10:43:00 PM -20.2367 166.5533 56° Northeast  Level FlightAware Approximate
Fri 10:44:00 PM -20.1579 166.6780 56° Northeast  Level FlightAware Approximate
Fri 10:45:00 PM -20.0791 166.8026 56° Northeast  Level FlightAware Approximate
Fri 10:46:00 PM -20.0002 166.9271 56° Northeast  Level FlightAware Approximate
Fri 10:47:00 PM -19.9211 167.0515 56° Northeast  Level FlightAware Approximate
Fri 10:48:00 PM -19.8420 167.1757 56° Northeast  Level FlightAware Approximate
Fri 10:49:00 PM -19.7628 167.2998 56° Northeast  Level FlightAware Approximate
Fri 10:50:00 PM -19.6836 167.4238 56° Northeast  Level FlightAware Approximate
Fri 10:51:00 PM -19.6042 167.5477 56° Northeast  Level FlightAware Approximate
Fri 10:52:00 PM -19.5248 167.6714 56° Northeast  Level FlightAware Approximate
Fri 10:53:00 PM -19.4453 167.7950 56° Northeast  Level FlightAware Approximate
Fri 10:54:00 PM -19.3657 167.9185 56° Northeast  Level FlightAware Approximate
Fri 10:55:00 PM -19.2860 168.0419 56° Northeast  Level FlightAware Approximate
Fri 10:56:00 PM -19.2062 168.1652 56° Northeast  Level FlightAware Approximate
Fri 10:57:00 PM -19.1263 168.2883 56° Northeast  Level FlightAware Approximate
Fri 10:58:00 PM -19.0464 168.4113 56° Northeast  Level FlightAware Approximate
Fri 10:59:00 PM -18.9664 168.5343 55° Northeast  Level FlightAware Approximate
Fri 11:00:00 PM -18.8863 168.6570 55° Northeast  Level FlightAware Approximate
Fri 11:01:00 PM -18.8061 168.7797 55° Northeast  Level FlightAware Approximate
Fri 11:02:00 PM -18.7258 168.9023 55° Northeast  Level FlightAware Approximate
Fri 11:03:00 PM -18.6455 169.0247 55° Northeast  Level FlightAware Approximate
Fri 11:04:00 PM -18.5651 169.1470 55° Northeast  Level FlightAware Approximate
Fri 11:05:00 PM -18.4846 169.2692 55° Northeast  Level FlightAware Approximate
Fri 11:06:00 PM -18.4040 169.3913 55° Northeast  Level FlightAware Approximate
Fri 11:07:00 PM -18.3233 169.5133 55° Northeast  Level FlightAware Approximate
Fri 11:08:00 PM -18.2426 169.6352 55° Northeast  Level FlightAware Approximate
Fri 11:09:00 PM -18.1618 169.7569 55° Northeast  Level FlightAware Approximate
Fri 11:10:00 PM -18.0809 169.8786 55° Northeast  Level FlightAware Approximate
Fri 11:11:00 PM -17.9944 169.9957 45° Northeast  Level Estimated
Fri 11:12:00 PM -17.8946 170.1006 45° Northeast  Level FlightAware Approximate
Fri 11:13:00 PM -17.7949 170.2054 45° Northeast  Level FlightAware Approximate
Fri 11:14:00 PM -17.6950 170.3101 45° Northeast  Level FlightAware Approximate
Fri 11:15:00 PM -17.5952 170.4147 45° Northeast  Level FlightAware Approximate
Fri 11:16:00 PM -17.4952 170.5192 45° Northeast  Level FlightAware Approximate
Fri 11:17:00 PM -17.3952 170.6235 45° Northeast  Level FlightAware Approximate
Fri 11:18:00 PM -17.2952 170.7277 45° Northeast  Level FlightAware Approximate
Fri 11:19:00 PM -17.1951 170.8318 45° Northeast  Level FlightAware Approximate
Fri 11:20:00 PM -17.0949 170.9359 45° Northeast  Level FlightAware Approximate
Fri 11:21:00 PM -16.9947 171.0397 45° Northeast  Level FlightAware Approximate
Fri 11:22:00 PM -16.8945 171.1435 45° Northeast  Level FlightAware Approximate
Fri 11:23:00 PM -16.7942 171.2472 45° Northeast  Level FlightAware Approximate
Fri 11:24:00 PM -16.6938 171.3508 45° Northeast  Level FlightAware Approximate
Fri 11:25:00 PM -16.5934 171.4542 45° Northeast  Level FlightAware Approximate
Fri 11:26:00 PM -16.4930 171.5575 45° Northeast  Level FlightAware Approximate
Fri 11:27:00 PM -16.3924 171.6608 45° Northeast  Level FlightAware Approximate
Fri 11:28:00 PM -16.2919 171.7639 45° Northeast  Level FlightAware Approximate
Fri 11:29:00 PM -16.1913 171.8669 45° Northeast  Level FlightAware Approximate
Fri 11:30:00 PM -16.0906 171.9698 44° Northeast  Level FlightAware Approximate
Fri 11:31:00 PM -15.9899 172.0726 44° Northeast  Level FlightAware Approximate
Fri 11:32:00 PM -15.8891 172.1754 44° Northeast  Level FlightAware Approximate
Fri 11:33:00 PM -15.7883 172.2780 44° Northeast  Level FlightAware Approximate
Fri 11:34:00 PM -15.6875 172.3805 44° Northeast  Level FlightAware Approximate
Fri 11:35:00 PM -15.5866 172.4829 44° Northeast  Level FlightAware Approximate
Fri 11:36:00 PM -15.4856 172.5852 44° Northeast  Level FlightAware Approximate
Fri 11:37:00 PM -15.3846 172.6874 44° Northeast  Level FlightAware Approximate
Fri 11:38:00 PM -15.2836 172.7895 44° Northeast  Level FlightAware Approximate
Fri 11:39:00 PM -15.1825 172.8915 44° Northeast  Level FlightAware Approximate
Fri 11:40:00 PM -15.0813 172.9934 44° Northeast  Level FlightAware Approximate
Fri 11:41:00 PM -14.9802 173.0952 44° Northeast  Level FlightAware Approximate
Fri 11:42:00 PM -14.8789 173.1969 44° Northeast  Level FlightAware Approximate
Fri 11:43:00 PM -14.7776 173.2985 44° Northeast  Level FlightAware Approximate
Fri 11:44:00 PM -14.6763 173.4001 44° Northeast  Level FlightAware Approximate
Fri 11:45:00 PM -14.5750 173.5015 44° Northeast  Level FlightAware Approximate
Fri 11:46:00 PM -14.4736 173.6028 44° Northeast  Level FlightAware Approximate
Fri 11:47:00 PM -14.3721 173.7041 44° Northeast  Level FlightAware Approximate
Fri 11:48:00 PM -14.2706 173.8052 44° Northeast  Level FlightAware Approximate
Fri 11:49:00 PM -14.1691 173.9063 44° Northeast  Level FlightAware Approximate
Fri 11:50:00 PM -14.0675 174.0072 44° Northeast  Level FlightAware Approximate
Fri 11:51:00 PM -13.9670 174.1070 44° Northeast  Level FlightAware Approximate
Fri 11:52:00 PM -13.8664 174.2067 44° Northeast  Level FlightAware Approximate
Fri 11:53:00 PM -13.7658 174.3064 44° Northeast  Level FlightAware Approximate
Fri 11:54:00 PM -13.6652 174.4059 44° Northeast  Level FlightAware Approximate
Fri 11:55:00 PM -13.5645 174.5053 44° Northeast  Level FlightAware Approximate
Fri 11:56:00 PM -13.4638 174.6047 44° Northeast  Level FlightAware Approximate
Fri 11:57:00 PM -13.3630 174.7040 44° Northeast  Level FlightAware Approximate
Fri 11:58:00 PM -13.2622 174.8032 44° Northeast  Level FlightAware Approximate
Fri 11:59:00 PM -13.1614 174.9023 44° Northeast  Level FlightAware Approximate
Sat 12:00:00 AM -13.0605 175.0013 44° Northeast  Level FlightAware Approximate
Sat 12:01:00 AM -12.9596 175.1003 44° Northeast  Level FlightAware Approximate
Sat 12:02:00 AM -12.8586 175.1992 44° Northeast  Level FlightAware Approximate
Sat 12:03:00 AM -12.7576 175.2979 44° Northeast  Level FlightAware Approximate
Sat 12:04:00 AM -12.6566 175.3967 44° Northeast  Level FlightAware Approximate
Sat 12:05:00 AM -12.5555 175.4953 44° Northeast  Level FlightAware Approximate
Sat 12:06:00 AM -12.4544 175.5939 44° Northeast  Level FlightAware Approximate
Sat 12:07:00 AM -12.3533 175.6924 44° Northeast  Level FlightAware Approximate
Sat 12:08:00 AM -12.2521 175.7908 44° Northeast  Level FlightAware Approximate
Sat 12:09:00 AM -12.1510 175.8891 44° Northeast  Level FlightAware Approximate
Sat 12:10:00 AM -12.0497 175.9874 44° Northeast  Level FlightAware Approximate
Sat 12:11:00 AM -11.9484 176.0855 43° Northeast  Level FlightAware Approximate
Sat 12:12:00 AM -11.8471 176.1836 43° Northeast  Level FlightAware Approximate
Sat 12:13:00 AM -11.7458 176.2817 43° Northeast  Level FlightAware Approximate
Sat 12:14:00 AM -11.6444 176.3796 43° Northeast  Level FlightAware Approximate
Sat 12:15:00 AM -11.5430 176.4775 43° Northeast  Level FlightAware Approximate
Sat 12:16:00 AM -11.4416 176.5753 43° Northeast  Level FlightAware Approximate
Sat 12:17:00 AM -11.3401 176.6731 43° Northeast  Level FlightAware Approximate
Sat 12:18:00 AM -11.2386 176.7708 43° Northeast  Level FlightAware Approximate
Sat 12:19:00 AM -11.1370 176.8684 43° Northeast  Level FlightAware Approximate
Sat 12:20:00 AM -11.0484 176.9783 45° Northeast  Level Estimated
Sat 12:21:00 AM -10.9500 177.0790 45° Northeast  Level FlightAware Approximate
Sat 12:22:00 AM -10.8514 177.1797 45° Northeast  Level FlightAware Approximate
Sat 12:23:00 AM -10.7529 177.2803 45° Northeast  Level FlightAware Approximate
Sat 12:24:00 AM -10.6543 177.3809 45° Northeast  Level FlightAware Approximate
Sat 12:25:00 AM -10.5557 177.4814 45° Northeast  Level FlightAware Approximate
Sat 12:26:00 AM -10.4571 177.5818 45° Northeast  Level FlightAware Approximate
Sat 12:27:00 AM -10.3584 177.6821 45° Northeast  Level FlightAware Approximate
Sat 12:28:00 AM -10.2597 177.7825 45° Northeast  Level FlightAware Approximate
Sat 12:29:00 AM -10.1610 177.8827 45° Northeast  Level FlightAware Approximate
Sat 12:30:00 AM -10.0622 177.9829 45° Northeast  Level FlightAware Approximate
Sat 12:31:00 AM -9.9634 178.0830 45° Northeast  Level FlightAware Approximate
Sat 12:32:00 AM -9.8646 178.1830 45° Northeast  Level FlightAware Approximate
Sat 12:33:00 AM -9.7658 178.2830 45° Northeast  Level FlightAware Approximate
Sat 12:34:00 AM -9.6669 178.3829 45° Northeast  Level FlightAware Approximate
Sat 12:35:00 AM -9.5680 178.4828 45° Northeast  Level FlightAware Approximate
Sat 12:36:00 AM -9.4690 178.5826 45° Northeast  Level FlightAware Approximate
Sat 12:37:00 AM -9.3701 178.6824 45° Northeast  Level FlightAware Approximate
Sat 12:38:00 AM -9.2711 178.7821 45° Northeast  Level FlightAware Approximate
Sat 12:39:00 AM -9.1720 178.8817 45° Northeast  Level FlightAware Approximate
Sat 12:40:00 AM -9.0730 178.9813 45° Northeast  Level FlightAware Approximate
Sat 12:41:00 AM -8.9739 179.0809 45° Northeast  Level FlightAware Approximate
Sat 12:42:00 AM -8.8748 179.1803 45° Northeast  Level FlightAware Approximate
Sat 12:43:00 AM -8.7757 179.2798 45° Northeast  Level FlightAware Approximate
Sat 12:44:00 AM -8.6765 179.3791 45° Northeast  Level FlightAware Approximate
Sat 12:45:00 AM -8.5773 179.4785 45° Northeast  Level FlightAware Approximate
Sat 12:46:00 AM -8.4781 179.5777 45° Northeast  Level FlightAware Approximate
Sat 12:47:00 AM -8.3789 179.6769 45° Northeast  Level FlightAware Approximate
Sat 12:48:00 AM -8.2796 179.7761 45° Northeast  Level FlightAware Approximate
Sat 12:49:00 AM -8.1804 179.8752 45° Northeast  Level FlightAware Approximate
Sat 12:50:00 AM -8.0810 179.9743 45° Northeast  Level FlightAware Approximate
Sat 12:51:00 AM -7.9817 -179.9267 45° Northeast  Level FlightAware Approximate
Sat 12:52:00 AM -7.8824 -179.8277 45° Northeast  Level FlightAware Approximate
Sat 12:53:00 AM -7.7837 -179.7294 45° Northeast  Level FlightAware Approximate
Sat 12:54:00 AM -7.6849 -179.6312 45° Northeast  Level FlightAware Approximate
Sat 12:55:00 AM -7.5862 -179.5331 45° Northeast  Level FlightAware Approximate
Sat 12:56:00 AM -7.4874 -179.4350 45° Northeast  Level FlightAware Approximate
Sat 12:57:00 AM -7.3886 -179.3369 45° Northeast  Level FlightAware Approximate
Sat 12:58:00 AM -7.2898 -179.2388 45° Northeast  Level FlightAware Approximate
Sat 12:59:00 AM -7.1909 -179.1408 45° Northeast  Level FlightAware Approximate
Sat 01:00:00 AM -7.0921 -179.0429 45° Northeast  Level FlightAware Approximate
Sat 01:01:00 AM -6.9932 -178.9450 45° Northeast  Level FlightAware Approximate
Sat 01:02:00 AM -6.8943 -178.8471 44° Northeast  Level FlightAware Approximate
Sat 01:03:00 AM -6.7954 -178.7493 44° Northeast  Level FlightAware Approximate
Sat 01:04:00 AM -6.6964 -178.6515 44° Northeast  Level FlightAware Approximate
Sat 01:05:00 AM -6.5975 -178.5538 44° Northeast  Level FlightAware Approximate
Sat 01:06:00 AM -6.4985 -178.4560 44° Northeast  Level FlightAware Approximate
Sat 01:07:00 AM -6.3995 -178.3584 44° Northeast  Level FlightAware Approximate
Sat 01:08:00 AM -6.3005 -178.2607 44° Northeast  Level FlightAware Approximate
Sat 01:09:00 AM -6.2014 -178.1631 44° Northeast  Level FlightAware Approximate
Sat 01:10:00 AM -6.1024 -178.0656 44° Northeast  Level FlightAware Approximate
Sat 01:11:00 AM -6.0033 -177.9681 44° Northeast  Level FlightAware Approximate
Sat 01:12:00 AM -5.9042 -177.8706 44° Northeast  Level FlightAware Approximate
Sat 01:13:00 AM -5.8051 -177.7731 44° Northeast  Level FlightAware Approximate
Sat 01:14:00 AM -5.7060 -177.6757 44° Northeast  Level FlightAware Approximate
Sat 01:15:00 AM -5.6069 -177.5784 44° Northeast  Level FlightAware Approximate
Sat 01:16:00 AM -5.5077 -177.4810 44° Northeast  Level FlightAware Approximate
Sat 01:17:00 AM -5.4085 -177.3837 44° Northeast  Level FlightAware Approximate
Sat 01:17:05 AM -5.0000 -176.9833 44° Northeast 500 575 33,000  Level Oakland Oceanic (ODAPS)
Sat 01:18:00 AM -5.3093 -177.2864 44° Northeast  Level FlightAware Approximate
Sat 01:19:00 AM -5.2101 -177.1891 44° Northeast  Level FlightAware Approximate
Sat 01:20:00 AM -5.1109 -177.0919 44° Northeast  Level FlightAware Approximate
Sat 01:21:00 AM -5.0218 -176.9853 44° Northeast  Level Estimated
Sat 01:22:00 AM -4.9219 -176.8888 44° Northeast  Level FlightAware Approximate
Sat 01:23:00 AM -4.4002 -176.3930 44° Northeast 500 575 33,000  Level FlightAware Transoceanic
Sat 01:24:00 AM -4.3001 -176.2947 44° Northeast 500 575 33,000  Level FlightAware Transoceanic
Sat 01:24:52 AM -4.2333 -176.2167 43° Northeast 501 577 33,000  Level Oakland Oceanic (ODAPS)
Sat 01:25:00 AM -4.2001 -176.1965 44° Northeast 500 575 33,000  Level FlightAware Transoceanic
Sat 01:26:00 AM -4.1001 -176.0982 44° Northeast 500 575 33,000  Level FlightAware Transoceanic
Sat 01:27:00 AM -4.0000 -176.0000 45° Northeast 500 575 33,000  Level FlightAware Transoceanic
Sat 01:27:11 AM -4.0000 -176.0000 45° Northeast 501 577 33,000  Level Oakland Oceanic (ODAPS)
Sat 01:28:00 AM -3.9034 -175.9029 45° Northeast 500 575 33,000  Level FlightAware Transoceanic
Sat 01:29:00 AM -3.8068 -175.8058 45° Northeast 500 575 33,000  Level FlightAware Transoceanic
Sat 01:30:00 AM -3.7102 -175.7087 45° Northeast 500 575 33,000  Level FlightAware Transoceanic
Sat 01:31:00 AM -3.6135 -175.6117 45° Northeast 501 577 33,000  Level FlightAware Transoceanic
Sat 01:32:00 AM -3.5169 -175.5146 45° Northeast 501 577 33,000  Level FlightAware Transoceanic
Sat 01:33:00 AM -3.4107 -175.4081 45° Northeast 501 577 33,000  Level FlightAware Transoceanic
Sat 01:34:00 AM -3.3125 -175.3095 45° Northeast 501 577 33,000  Level FlightAware Transoceanic
Sat 01:35:00 AM -3.2142 -175.2109 45° Northeast 501 577 33,000  Level FlightAware Transoceanic
Sat 01:36:00 AM -3.1159 -175.1124 45° Northeast 501 577 33,000  Level FlightAware Transoceanic
Sat 01:37:00 AM -3.0176 -175.0139 45° Northeast 501 577 33,000  Level FlightAware Transoceanic
Sat 01:38:00 AM -2.9194 -174.9154 45° Northeast 501 577 33,000  Level FlightAware Transoceanic
Sat 01:38:52 AM -2.8667 -174.8500 45° Northeast 498 573 33,000  Level Oakland Oceanic (ODAPS)
Sat 01:39:00 AM -2.8211 -174.8169 45° Northeast 501 577 33,000  Level FlightAware Transoceanic
Sat 01:40:00 AM -2.7228 -174.7184 45° Northeast 501 577 33,000  Level FlightAware Transoceanic
Sat 01:41:00 AM -2.6244 -174.6200 45° Northeast 501 577 33,000  Level FlightAware Transoceanic
Sat 01:42:00 AM -2.5261 -174.5215 45° Northeast 501 577 33,000  Level FlightAware Transoceanic
Sat 01:43:00 AM -2.4278 -174.4231 45° Northeast 501 577 33,000  Level FlightAware Transoceanic
Sat 01:44:00 AM -2.3295 -174.3247 45° Northeast 501 577 33,000  Level FlightAware Transoceanic
Sat 01:45:00 AM -2.2712 -174.2553 45° Northeast 498 573 33,000  Level FlightAware Transoceanic
Sat 01:46:00 AM -2.1719 -174.1562 45° Northeast 498 573 33,000  Level FlightAware Transoceanic
Sat 01:47:00 AM -2.0726 -174.0572 45° Northeast 498 573 33,000  Level FlightAware Transoceanic
Sat 01:48:00 AM -1.9733 -173.9582 45° Northeast 498 573 33,000  Level FlightAware Transoceanic
Sat 01:49:00 AM -1.8740 -173.8591 45° Northeast 498 573 33,000  Level FlightAware Transoceanic
Sat 01:50:00 AM -1.7747 -173.7601 45° Northeast 498 573 33,000  Level FlightAware Transoceanic
Sat 01:51:00 AM -1.6754 -173.6611 45° Northeast 498 573 33,000  Level FlightAware Transoceanic
Sat 01:52:00 AM -1.5761 -173.5621 45° Northeast 498 573 33,000  Level FlightAware Transoceanic
Sat 01:52:37 AM -1.5000 -173.4833 45° Northeast 497 572 33,000  Level Oakland Oceanic (ODAPS)
Sat 01:53:00 AM -1.4768 -173.4631 45° Northeast 498 573 33,000  Level FlightAware Transoceanic
Sat 01:54:00 AM -1.3774 -173.3642 45° Northeast 498 573 33,000  Level FlightAware Transoceanic
Sat 01:55:00 AM -1.2781 -173.2652 45° Northeast 498 573 33,000  Level FlightAware Transoceanic
Sat 01:56:00 AM -1.1788 -173.1662 45° Northeast 498 573 33,000  Level FlightAware Transoceanic
Sat 01:57:00 AM -1.0795 -173.0673 45° Northeast 498 573 33,000  Level FlightAware Transoceanic
Sat 01:58:00 AM -0.9801 -172.9683 45° Northeast 498 573 33,000  Level FlightAware Transoceanic
Sat 01:59:00 AM -0.8195 -172.8060 45° Northeast 497 572 33,000  Level FlightAware Transoceanic
Sat 02:00:00 AM -0.7222 -172.7092 45° Northeast 497 572 33,000  Level FlightAware Transoceanic
Sat 02:01:00 AM -0.6250 -172.6125 45° Northeast 497 572 33,000  Level FlightAware Transoceanic
Sat 02:02:00 AM -0.5278 -172.5157 45° Northeast 497 572 33,000  Level FlightAware Transoceanic
Sat 02:03:00 AM -0.4306 -172.4190 45° Northeast 497 572 33,000  Level FlightAware Transoceanic
Sat 02:04:00 AM -0.3333 -172.3223 45° Northeast 497 572 33,000  Level FlightAware Transoceanic
Sat 02:05:00 AM -0.2361 -172.2255 45° Northeast 497 572 33,000  Level FlightAware Transoceanic
Sat 02:06:00 AM -0.1388 -172.1288 45° Northeast 497 572 33,000  Level FlightAware Transoceanic
Sat 02:06:28 AM -0.1667 -172.1500 45° Northeast 491 565 33,000  Level Oakland Oceanic (ODAPS)
Sat 02:07:00 AM -0.0416 -172.0321 45° Northeast 497 572 33,000  Level FlightAware Transoceanic
Sat 02:08:00 AM 0.0556 -171.9354 45° Northeast 497 572 33,000  Level FlightAware Transoceanic
Sat 02:09:00 AM 0.1529 -171.8386 45° Northeast 497 572 33,000  Level FlightAware Transoceanic
Sat 02:10:00 AM 0.2501 -171.7419 45° Northeast 497 572 33,000  Level FlightAware Transoceanic
Sat 02:11:00 AM 0.3474 -171.6452 45° Northeast 497 572 33,000  Level FlightAware Transoceanic
Sat 02:12:00 AM 0.3986 -171.5893 45° Northeast 491 565 33,000  Level FlightAware Transoceanic
Sat 02:13:00 AM 0.4929 -171.4959 45° Northeast 491 565 33,000  Level FlightAware Transoceanic
Sat 02:14:00 AM 0.5871 -171.4024 45° Northeast 491 565 33,000  Level FlightAware Transoceanic
Sat 02:15:00 AM 0.6813 -171.3090 45° Northeast 491 565 33,000  Level FlightAware Transoceanic
Sat 02:16:00 AM 0.7755 -171.2155 45° Northeast 491 565 33,000  Level FlightAware Transoceanic
Sat 02:17:00 AM 0.8697 -171.1221 45° Northeast 491 565 33,000  Level FlightAware Transoceanic
Sat 02:18:00 AM 0.9639 -171.0286 45° Northeast 491 565 33,000  Level FlightAware Transoceanic
Sat 02:19:00 AM 1.0581 -170.9351 45° Northeast 491 565 33,000  Level FlightAware Transoceanic
Sat 02:20:00 AM 1.1523 -170.8416 45° Northeast 491 565 33,000  Level FlightAware Transoceanic
Sat 02:20:21 AM 1.1833 -170.8000 44° Northeast 500 575 33,000  Level Oakland Oceanic (ODAPS)
Sat 02:21:00 AM 1.2465 -170.7482 45° Northeast 491 565 33,000  Level FlightAware Transoceanic
Sat 02:22:00 AM 1.3407 -170.6547 45° Northeast 491 565 33,000  Level FlightAware Transoceanic
Sat 02:23:00 AM 1.4349 -170.5612 45° Northeast 491 565 33,000  Level FlightAware Transoceanic
Sat 02:24:00 AM 1.5291 -170.4677 45° Northeast 491 565 33,000  Level FlightAware Transoceanic
Sat 02:25:00 AM 1.6233 -170.3741 45° Northeast 491 565 33,000  Level FlightAware Transoceanic
Sat 02:26:00 AM 1.7959 -170.2001 44° Northeast 500 575 33,000  Level FlightAware Transoceanic
Sat 02:27:00 AM 1.8979 -170.1000 44° Northeast 500 575 33,000  Level FlightAware Transoceanic
Sat 02:28:00 AM 2.0000 -170.0000 45° Northeast 500 575 33,000  Level FlightAware Transoceanic
Sat 02:28:38 AM 2.0000 -170.0000 45° Northeast 501 577 33,000  Level Oakland Oceanic (ODAPS)
Sat 02:29:00 AM 2.0969 -169.9035 45° Northeast 500 575 33,000  Level FlightAware Transoceanic
Sat 02:30:00 AM 2.1938 -169.8070 45° Northeast 500 575 33,000  Level FlightAware Transoceanic
Sat 02:31:00 AM 2.2907 -169.7104 45° Northeast 500 575 33,000  Level FlightAware Transoceanic
Sat 02:32:00 AM 2.3876 -169.6139 45° Northeast 500 575 33,000  Level FlightAware Transoceanic
Sat 02:33:00 AM 2.4845 -169.5173 45° Northeast 500 575 33,000  Level FlightAware Transoceanic
Sat 02:34:00 AM 2.5813 -169.4207 45° Northeast 501 577 33,000  Level FlightAware Transoceanic
Sat 02:34:13 AM 2.5500 -169.4500 45° Northeast 501 577 33,000  Level Oakland Oceanic (ODAPS)
Sat 02:35:00 AM 2.6782 -169.3241 45° Northeast 501 577 33,000  Level FlightAware Transoceanic
Sat 02:36:00 AM 2.7750 -169.2275 45° Northeast 501 577 33,000  Level FlightAware Transoceanic
Sat 02:37:00 AM 2.8719 -169.1309 45° Northeast 501 577 33,000  Level FlightAware Transoceanic
Sat 02:38:00 AM 2.9687 -169.0343 45° Northeast 501 577 33,000  Level FlightAware Transoceanic
Sat 02:39:00 AM 3.0656 -168.9376 45° Northeast 501 577 33,000  Level FlightAware Transoceanic
Sat 02:40:00 AM 3.1386 -168.8632 45° Northeast 501 577 33,000  Level FlightAware Transoceanic
Sat 02:41:00 AM 3.2367 -168.7653 45° Northeast 501 577 33,000  Level FlightAware Transoceanic
Sat 02:42:00 AM 3.3347 -168.6674 45° Northeast 501 577 33,000  Level FlightAware Transoceanic
Sat 02:43:00 AM 3.4328 -168.5695 45° Northeast 501 577 33,000  Level FlightAware Transoceanic
Sat 02:44:00 AM 3.5308 -168.4716 45° Northeast 501 577 33,000  Level FlightAware Transoceanic
Sat 02:45:00 AM 3.6288 -168.3737 45° Northeast 501 577 33,000  Level FlightAware Transoceanic
Sat 02:46:00 AM 3.7269 -168.2757 45° Northeast 501 577 33,000  Level FlightAware Transoceanic
Sat 02:47:00 AM 3.8249 -168.1777 45° Northeast 501 577 33,000  Level FlightAware Transoceanic
Sat 02:48:00 AM 3.9229 -168.0797 45° Northeast 501 577 33,000  Level FlightAware Transoceanic
Sat 02:48:04 AM 3.9167 -168.0833 45° Northeast 507 583 33,000  Level Oakland Oceanic (ODAPS)
Sat 02:49:00 AM 4.0208 -167.9817 45° Northeast 501 577 33,000  Level FlightAware Transoceanic
Sat 02:50:00 AM 4.1188 -167.8836 45° Northeast 501 577 33,000  Level FlightAware Transoceanic
Sat 02:51:00 AM 4.2168 -167.7856 45° Northeast 501 577 33,000  Level FlightAware Transoceanic
Sat 02:52:00 AM 4.3147 -167.6875 45° Northeast 501 577 33,000  Level FlightAware Transoceanic
Sat 02:53:00 AM 4.4127 -167.5893 45° Northeast 501 577 33,000  Level FlightAware Transoceanic
Sat 02:54:00 AM 4.5078 -167.4928 45° Northeast 507 583 33,000  Level FlightAware Transoceanic
Sat 02:55:00 AM 4.6062 -167.3943 45° Northeast 507 583 33,000  Level FlightAware Transoceanic
Sat 02:56:00 AM 4.7047 -167.2958 45° Northeast 507 583 33,000  Level FlightAware Transoceanic
Sat 02:57:00 AM 4.8032 -167.1972 45° Northeast 507 583 33,000  Level FlightAware Transoceanic
Sat 02:58:00 AM 4.9016 -167.0986 45° Northeast 507 583 33,000  Level FlightAware Transoceanic
Sat 02:59:00 AM 5.0000 -167.0000 50° Northeast 507 583 33,000 1,967 Level FlightAware Transoceanic
Sat 02:59:01 AM 5.0000 -167.0000 50° Northeast 513 590 35,000  Climbing Oakland Oceanic (ODAPS)
Sat 03:00:00 AM 5.0932 -166.8900 50° Northeast 507 583 33,000 -1,008 Descending FlightAware Transoceanic
Sat 03:01:00 AM 5.1865 -166.7800 50° Northeast 507 583 33,000 1,026 Level FlightAware Transoceanic
Sat 03:01:57 AM 5.2667 -166.6833 50° Northeast 514 592 35,000  Climbing Oakland Oceanic (ODAPS)
Sat 03:02:00 AM 5.2797 -166.6699 50° Northeast 507 583 33,000 -1,905 Descending FlightAware Transoceanic
Sat 03:03:00 AM 5.3729 -166.5598 50° Northeast 507 583 33,000  Level FlightAware Transoceanic
Sat 03:04:00 AM 5.4661 -166.4497 50° Northeast 507 583 33,000 1,000 Level FlightAware Transoceanic
Sat 03:05:00 AM 5.5592 -166.3396 50° Northeast 513 590 35,000 1,000 Climbing FlightAware Transoceanic
Sat 03:06:00 AM 5.6523 -166.2294 50° Northeast 513 590 35,000  Level FlightAware Transoceanic
Sat 03:07:00 AM 5.7455 -166.1191 50° Northeast 513 590 35,000  Level FlightAware Transoceanic
Sat 03:08:00 AM 5.8271 -166.0207 50° Northeast 514 592 35,000  Level FlightAware Transoceanic
Sat 03:09:00 AM 5.9204 -165.9102 50° Northeast 514 592 35,000  Level FlightAware Transoceanic
Sat 03:10:00 AM 6.0137 -165.7996 50° Northeast 514 592 35,000  Level FlightAware Transoceanic
Sat 03:11:00 AM 6.1070 -165.6889 50° Northeast 514 592 35,000  Level FlightAware Transoceanic
Sat 03:12:00 AM 6.2002 -165.5782 50° Northeast 514 592 35,000  Level FlightAware Transoceanic
Sat 03:13:00 AM 6.2935 -165.4675 50° Northeast 514 592 35,000  Level FlightAware Transoceanic
Sat 03:14:00 AM 6.3867 -165.3568 50° Northeast 514 592 35,000  Level FlightAware Transoceanic
Sat 03:15:00 AM 6.4799 -165.2460 50° Northeast 514 592 35,000  Level FlightAware Transoceanic
Sat 03:16:00 AM 6.5731 -165.1352 50° Northeast 514 592 35,000  Level FlightAware Transoceanic
Sat 03:16:06 AM 6.5333 -165.1833 50° Northeast 516 594 35,000  Level Oakland Oceanic (ODAPS)
Sat 03:17:00 AM 6.6662 -165.0243 50° Northeast 514 592 35,000  Level FlightAware Transoceanic
Sat 03:18:00 AM 6.7593 -164.9134 50° Northeast 514 592 35,000  Level FlightAware Transoceanic
Sat 03:19:00 AM 6.8524 -164.8024 50° Northeast 514 592 35,000  Level FlightAware Transoceanic
Sat 03:20:00 AM 6.9455 -164.6914 50° Northeast 514 592 35,000  Level FlightAware Transoceanic
Sat 03:21:00 AM 7.0385 -164.5804 50° Northeast 514 592 35,000  Level FlightAware Transoceanic
Sat 03:22:00 AM 7.0983 -164.5097 50° Northeast 516 594 35,000  Level FlightAware Transoceanic
Sat 03:23:00 AM 7.1924 -164.3973 50° Northeast 516 594 35,000  Level FlightAware Transoceanic
Sat 03:24:00 AM 7.2864 -164.2848 50° Northeast 516 594 35,000  Level FlightAware Transoceanic
Sat 03:25:00 AM 7.3804 -164.1723 50° Northeast 516 594 35,000  Level FlightAware Transoceanic
Sat 03:26:00 AM 7.4744 -164.0597 50° Northeast 516 594 35,000  Level FlightAware Transoceanic
Sat 03:27:00 AM 7.5684 -163.9471 50° Northeast 516 594 35,000  Level FlightAware Transoceanic
Sat 03:28:00 AM 7.6623 -163.8344 50° Northeast 516 594 35,000  Level FlightAware Transoceanic
Sat 03:29:00 AM 7.7562 -163.7217 50° Northeast 516 594 35,000  Level FlightAware Transoceanic
Sat 03:29:40 AM 7.8167 -163.6500 50° Northeast 517 595 35,000  Level Oakland Oceanic (ODAPS)
Sat 03:30:00 AM 7.8501 -163.6090 50° Northeast 516 594 35,000  Level FlightAware Transoceanic
Sat 03:31:00 AM 7.9439 -163.4961 50° Northeast 516 594 35,000  Level FlightAware Transoceanic
Sat 03:32:00 AM 8.0377 -163.3833 50° Northeast 516 594 35,000  Level FlightAware Transoceanic
Sat 03:33:00 AM 8.1315 -163.2704 50° Northeast 516 594 35,000  Level FlightAware Transoceanic
Sat 03:34:00 AM 8.2252 -163.1574 50° Northeast 516 594 35,000  Level FlightAware Transoceanic
Sat 03:35:00 AM 8.2929 -163.0765 50° Northeast 517 595 35,000  Level FlightAware Transoceanic
Sat 03:36:00 AM 8.3880 -162.9617 50° Northeast 517 595 35,000  Level FlightAware Transoceanic
Sat 03:37:00 AM 8.4831 -162.8468 50° Northeast 517 595 35,000  Level FlightAware Transoceanic
Sat 03:38:00 AM 8.5782 -162.7318 50° Northeast 517 595 35,000  Level FlightAware Transoceanic
Sat 03:39:00 AM 8.6732 -162.6168 50° Northeast 517 595 35,000  Level FlightAware Transoceanic
Sat 03:40:00 AM 8.7682 -162.5017 50° Northeast 517 595 35,000  Level FlightAware Transoceanic
Sat 03:41:00 AM 8.8632 -162.3866 50° Northeast 517 595 35,000  Level FlightAware Transoceanic
Sat 03:42:00 AM 8.9581 -162.2713 50° Northeast 517 595 35,000  Level FlightAware Transoceanic
Sat 03:43:00 AM 9.0530 -162.1561 50° Northeast 517 595 35,000  Level FlightAware Transoceanic
Sat 03:43:33 AM 9.1167 -162.0667 50° Northeast 532 612 35,000  Level Oakland Oceanic (ODAPS)
Sat 03:44:00 AM 9.1479 -162.0408 50° Northeast 517 595 35,000  Level FlightAware Transoceanic
Sat 03:45:00 AM 9.2427 -161.9254 50° Northeast 517 595 35,000  Level FlightAware Transoceanic
Sat 03:46:00 AM 9.3375 -161.8099 50° Northeast 517 595 35,000  Level FlightAware Transoceanic
Sat 03:47:00 AM 9.4323 -161.6944 50° Northeast 517 595 35,000  Level FlightAware Transoceanic
Sat 03:48:00 AM 9.5270 -161.5788 50° Northeast 517 595 35,000  Level FlightAware Transoceanic
Sat 03:49:00 AM 9.6471 -161.4273 50° Northeast 532 612 35,000  Level FlightAware Transoceanic
Sat 03:50:00 AM 9.7353 -161.3206 50° Northeast 532 612 35,000  Level FlightAware Transoceanic
Sat 03:51:00 AM 9.8236 -161.2138 50° Northeast 532 612 35,000  Level FlightAware Transoceanic
Sat 03:52:00 AM 9.9118 -161.1069 50° Northeast 532 612 35,000  Level FlightAware Transoceanic
Sat 03:52:52 AM 10.0000 -161.0000 53° Northeast 533 613 35,000  Level Oakland Oceanic (ODAPS)
Sat 03:53:00 AM 10.0000 -161.0000 53° Northeast 532 612 35,000  Level FlightAware Transoceanic
Sat 03:54:00 AM 10.0892 -160.8794 53° Northeast 532 612 35,000  Level FlightAware Transoceanic
Sat 03:55:00 AM 10.1783 -160.7587 53° Northeast 532 612 35,000  Level FlightAware Transoceanic
Sat 03:56:00 AM 10.2674 -160.6379 53° Northeast 532 612 35,000  Level FlightAware Transoceanic
Sat 03:57:00 AM 10.3564 -160.5171 53° Northeast 532 612 35,000  Level FlightAware Transoceanic
Sat 03:57:25 AM 10.4000 -160.4500 53° Northeast 530 610 35,000  Level Oakland Oceanic (ODAPS)
Sat 03:58:00 AM 10.4454 -160.3962 53° Northeast 532 612 35,000  Level FlightAware Transoceanic
Sat 03:59:00 AM 10.5343 -160.2752 53° Northeast 533 613 35,000  Level FlightAware Transoceanic
Sat 04:00:00 AM 10.6232 -160.1542 53° Northeast 533 613 35,000  Level FlightAware Transoceanic
Sat 04:01:00 AM 10.7121 -160.0331 53° Northeast 533 613 35,000  Level FlightAware Transoceanic
Sat 04:02:00 AM 10.8009 -159.9119 53° Northeast 533 613 35,000  Level FlightAware Transoceanic
Sat 04:03:00 AM 10.9282 -159.7310 53° Northeast 530 610 35,000  Level FlightAware Transoceanic
Sat 04:04:00 AM 11.0160 -159.6109 53° Northeast 530 610 35,000  Level FlightAware Transoceanic
Sat 04:05:00 AM 11.1039 -159.4907 53° Northeast 530 610 35,000  Level FlightAware Transoceanic
Sat 04:06:00 AM 11.1916 -159.3705 53° Northeast 530 610 35,000  Level FlightAware Transoceanic
Sat 04:07:00 AM 11.2794 -159.2502 53° Northeast 530 610 35,000  Level FlightAware Transoceanic
Sat 04:08:00 AM 11.3670 -159.1298 53° Northeast 530 610 35,000  Level FlightAware Transoceanic
Sat 04:09:00 AM 11.4547 -159.0094 53° Northeast 530 610 35,000  Level FlightAware Transoceanic
Sat 04:10:00 AM 11.5422 -158.8889 53° Northeast 530 610 35,000  Level FlightAware Transoceanic
Sat 04:11:00 AM 11.6298 -158.7683 53° Northeast 530 610 35,000  Level FlightAware Transoceanic
Sat 04:11:17 AM 11.6333 -158.7667 53° Northeast 532 612 35,000  Level Oakland Oceanic (ODAPS)
Sat 04:12:00 AM 11.7172 -158.6476 54° Northeast 530 610 35,000  Level FlightAware Transoceanic
Sat 04:13:00 AM 11.8047 -158.5269 54° Northeast 530 610 35,000  Level FlightAware Transoceanic
Sat 04:14:00 AM 11.8920 -158.4060 54° Northeast 530 610 35,000  Level FlightAware Transoceanic
Sat 04:15:00 AM 11.9794 -158.2851 54° Northeast 530 610 35,000  Level FlightAware Transoceanic
Sat 04:16:00 AM 12.0666 -158.1641 54° Northeast 530 610 35,000  Level FlightAware Transoceanic
Sat 04:17:00 AM 12.1569 -158.0417 54° Northeast 532 612 35,000  Level FlightAware Transoceanic
Sat 04:18:00 AM 12.2439 -157.9206 54° Northeast 532 612 35,000  Level FlightAware Transoceanic
Sat 04:19:00 AM 12.3310 -157.7994 54° Northeast 532 612 35,000  Level FlightAware Transoceanic
Sat 04:20:00 AM 12.4179 -157.6782 54° Northeast 532 612 35,000  Level FlightAware Transoceanic
Sat 04:21:00 AM 12.5049 -157.5568 54° Northeast 532 612 35,000  Level FlightAware Transoceanic
Sat 04:22:00 AM 12.5917 -157.4354 54° Northeast 532 612 35,000  Level FlightAware Transoceanic
Sat 04:23:00 AM 12.6785 -157.3139 54° Northeast 532 612 35,000  Level FlightAware Transoceanic
Sat 04:24:00 AM 12.7653 -157.1923 54° Northeast 532 612 35,000  Level FlightAware Transoceanic
Sat 04:25:00 AM 12.8520 -157.0706 54° Northeast 532 612 35,000  Level FlightAware Transoceanic
Sat 04:25:10 AM 12.8667 -157.0667 54° Northeast 535 616 35,000  Level Oakland Oceanic (ODAPS)
Sat 04:26:00 AM 12.9386 -156.9489 54° Northeast 532 612 35,000  Level FlightAware Transoceanic
Sat 04:27:00 AM 13.0252 -156.8270 54° Northeast 532 612 35,000  Level FlightAware Transoceanic
Sat 04:28:00 AM 13.1117 -156.7051 54° Northeast 532 612 35,000  Level FlightAware Transoceanic
Sat 04:29:00 AM 13.1982 -156.5831 54° Northeast 532 612 35,000  Level FlightAware Transoceanic
Sat 04:30:00 AM 13.2846 -156.4610 54° Northeast 532 612 35,000  Level FlightAware Transoceanic
Sat 04:31:00 AM 13.3821 -156.3358 54° Northeast 535 616 35,000  Level FlightAware Transoceanic
Sat 04:32:00 AM 13.4678 -156.2137 54° Northeast 535 616 35,000  Level FlightAware Transoceanic
Sat 04:33:00 AM 13.5535 -156.0914 54° Northeast 535 616 35,000  Level FlightAware Transoceanic
Sat 04:34:00 AM 13.6390 -155.9691 54° Northeast 535 616 35,000  Level FlightAware Transoceanic
Sat 04:35:00 AM 13.7246 -155.8468 54° Northeast 535 616 35,000  Level FlightAware Transoceanic
Sat 04:36:00 AM 13.8100 -155.7243 54° Northeast 535 616 35,000  Level FlightAware Transoceanic
Sat 04:37:00 AM 13.8954 -155.6017 54° Northeast 535 616 35,000  Level FlightAware Transoceanic
Sat 04:38:00 AM 13.9808 -155.4791 54° Northeast 535 616 35,000  Level FlightAware Transoceanic
Sat 04:39:00 AM 14.0661 -155.3563 54° Northeast 535 616 35,000  Level FlightAware Transoceanic
Sat 04:39:02 AM 14.0667 -155.3500 54° Northeast 538 619 35,000  Level Oakland Oceanic (ODAPS)
Sat 04:40:00 AM 14.1513 -155.2335 54° Northeast 535 616 35,000  Level FlightAware Transoceanic
Sat 04:41:00 AM 14.2365 -155.1106 54° Northeast 535 616 35,000  Level FlightAware Transoceanic
Sat 04:42:00 AM 14.3216 -154.9876 54° Northeast 535 616 35,000  Level FlightAware Transoceanic
Sat 04:43:00 AM 14.4066 -154.8645 55° Northeast 535 616 35,000  Level FlightAware Transoceanic
Sat 04:44:00 AM 14.4916 -154.7412 55° Northeast 535 616 35,000  Level FlightAware Transoceanic
Sat 04:45:00 AM 14.5767 -154.6151 54° Northeast 538 619 35,000  Level FlightAware Transoceanic
Sat 04:46:00 AM 14.6615 -154.4922 55° Northeast 538 619 35,000  Level FlightAware Transoceanic
Sat 04:47:00 AM 14.7462 -154.3693 55° Northeast 538 619 35,000  Level FlightAware Transoceanic
Sat 04:48:00 AM 14.8309 -154.2463 55° Northeast 538 619 35,000  Level FlightAware Transoceanic
Sat 04:49:00 AM 14.9155 -154.1232 55° Northeast 538 619 35,000  Level FlightAware Transoceanic
Sat 04:49:46 AM 15.0000 -154.0000 57° Northeast 542 624 35,000  Level Oakland Oceanic (ODAPS)
Sat 04:50:00 AM 15.0000 -154.0000 57° Northeast 538 619 35,000  Level FlightAware Transoceanic
Sat 04:51:00 AM 15.0826 -153.8669 57° Northeast 538 619 35,000  Level FlightAware Transoceanic
Sat 04:52:00 AM 15.1651 -153.7336 57° Northeast 538 619 35,000  Level FlightAware Transoceanic
Sat 04:52:54 AM 15.2500 -153.5833 57° Northeast 542 624 35,000  Level Oakland Oceanic (ODAPS)
Sat 04:53:00 AM 15.2475 -153.6002 57° Northeast 538 619 35,000  Level FlightAware Transoceanic
Sat 04:54:00 AM 15.3299 -153.4668 57° Northeast 538 619 35,000  Level FlightAware Transoceanic
Sat 04:55:00 AM 15.4122 -153.3332 57° Northeast 538 619 35,000  Level FlightAware Transoceanic
Sat 04:56:00 AM 15.4944 -153.1995 57° Northeast 542 624 35,000  Level FlightAware Transoceanic
Sat 04:57:00 AM 15.5765 -153.0657 58° Northeast 542 624 35,000  Level FlightAware Transoceanic
Sat 04:58:00 AM 15.6585 -152.9318 58° Northeast 542 624 35,000  Level FlightAware Transoceanic
Sat 04:59:00 AM 15.7424 -152.7839 58° Northeast 542 624 35,000  Level FlightAware Transoceanic
Sat 05:00:00 AM 15.8242 -152.6503 58° Northeast 542 624 35,000  Level FlightAware Transoceanic
Sat 05:01:00 AM 15.9059 -152.5166 58° Northeast 542 624 35,000  Level FlightAware Transoceanic
Sat 05:02:00 AM 15.9876 -152.3827 58° Northeast 542 624 35,000  Level FlightAware Transoceanic
Sat 05:03:00 AM 16.0691 -152.2488 58° Northeast 542 624 35,000  Level FlightAware Transoceanic
Sat 05:04:00 AM 16.1506 -152.1147 58° Northeast 542 624 35,000  Level FlightAware Transoceanic
Sat 05:05:00 AM 16.2320 -151.9806 58° Northeast 542 624 35,000  Level FlightAware Transoceanic
Sat 05:06:00 AM 16.3132 -151.8463 58° Northeast 542 624 35,000  Level FlightAware Transoceanic
Sat 05:06:46 AM 16.3667 -151.7667 58° Northeast 537 618 35,000  Level Oakland Oceanic (ODAPS)
Sat 05:07:00 AM 16.3945 -151.7119 58° Northeast 542 624 35,000  Level FlightAware Transoceanic
Sat 05:08:00 AM 16.4756 -151.5774 58° Northeast 542 624 35,000  Level FlightAware Transoceanic
Sat 05:09:00 AM 16.5566 -151.4428 58° Northeast 542 624 35,000  Level FlightAware Transoceanic
Sat 05:10:00 AM 16.6376 -151.3081 58° Northeast 542 624 35,000  Level FlightAware Transoceanic
Sat 05:11:00 AM 16.7184 -151.1733 58° Northeast 542 624 35,000  Level FlightAware Transoceanic
Sat 05:12:00 AM 16.7992 -151.0383 58° Northeast 542 624 35,000  Level FlightAware Transoceanic
Sat 05:13:00 AM 16.8606 -150.9418 58° Northeast 537 618 35,000  Level FlightAware Transoceanic
Sat 05:14:00 AM 16.9426 -150.8039 58° Northeast 537 618 35,000  Level FlightAware Transoceanic
Sat 05:15:00 AM 17.0245 -150.6658 58° Northeast 537 618 35,000  Level FlightAware Transoceanic
Sat 05:16:00 AM 17.1063 -150.5277 58° Northeast 537 618 35,000  Level FlightAware Transoceanic
Sat 05:17:00 AM 17.1880 -150.3894 58° Northeast 537 618 35,000  Level FlightAware Transoceanic
Sat 05:18:00 AM 17.2697 -150.2511 58° Northeast 537 618 35,000  Level FlightAware Transoceanic
Sat 05:19:00 AM 17.3512 -150.1125 58° Northeast 537 618 35,000  Level FlightAware Transoceanic
Sat 05:20:00 AM 17.4326 -149.9739 58° Northeast 537 618 35,000  Level FlightAware Transoceanic
Sat 05:20:37 AM 17.4500 -149.9500 59° Northeast 534 615 35,000  Level Oakland Oceanic (ODAPS)
Sat 05:21:00 AM 17.5140 -149.8352 58° Northeast 537 618 35,000  Level FlightAware Transoceanic
Sat 05:22:00 AM 17.5952 -149.6963 58° Northeast 537 618 35,000  Level FlightAware Transoceanic
Sat 05:23:00 AM 17.6764 -149.5573 59° Northeast 537 618 35,000  Level FlightAware Transoceanic
Sat 05:24:00 AM 17.7574 -149.4181 59° Northeast 537 618 35,000  Level FlightAware Transoceanic
Sat 05:25:00 AM 17.8384 -149.2789 59° Northeast 537 618 35,000  Level FlightAware Transoceanic
Sat 05:26:00 AM 17.9193 -149.1395 59° Northeast 537 618 35,000  Level FlightAware Transoceanic
Sat 05:27:00 AM 17.9315 -149.1191 59° Northeast 534 615 35,000  Level FlightAware Transoceanic
Sat 05:27:48 AM 18.0000 -149.0000 62° Northeast 540 621 35,000  Level Oakland Oceanic (ODAPS)
Sat 05:28:00 AM 18.0000 -149.0000 62° Northeast 534 615 35,000  Level FlightAware Transoceanic
Sat 05:29:00 AM 18.0721 -148.8579 62° Northeast 534 615 35,000  Level FlightAware Transoceanic
Sat 05:30:00 AM 18.1441 -148.7157 62° Northeast 534 615 35,000  Level FlightAware Transoceanic
Sat 05:31:00 AM 18.2160 -148.5734 62° Northeast 534 615 35,000  Level FlightAware Transoceanic
Sat 05:32:00 AM 18.2878 -148.4310 62° Northeast 534 615 35,000  Level FlightAware Transoceanic
Sat 05:33:00 AM 18.3596 -148.2884 62° Northeast 534 615 35,000  Level FlightAware Transoceanic
Sat 05:34:00 AM 18.4311 -148.1457 62° Northeast 540 621 35,000 1,333 Level FlightAware Transoceanic
Sat 05:34:30 AM 18.4833 -148.0500 62° Northeast 549 632 37,000  Climbing Oakland Oceanic (ODAPS)
Sat 05:35:00 AM 18.5026 -148.0029 62° Northeast 540 621 35,000 -1,333 Descending FlightAware Transoceanic
Sat 05:36:00 AM 18.5740 -147.8600 62° Northeast 540 621 35,000  Level FlightAware Transoceanic
Sat 05:37:00 AM 18.6453 -147.7170 62° Northeast 540 621 35,000  Level FlightAware Transoceanic
Sat 05:38:00 AM 18.7164 -147.5738 62° Northeast 540 621 35,000  Level FlightAware Transoceanic
Sat 05:39:00 AM 18.7875 -147.4306 62° Northeast 540 621 35,000 1,000 Level FlightAware Transoceanic
Sat 05:40:00 AM 18.8714 -147.2631 63° Northeast 549 632 37,000 1,000 Climbing FlightAware Transoceanic
Sat 05:41:00 AM 18.9357 -147.1316 63° Northeast 549 632 37,000  Level FlightAware Transoceanic
Sat 05:41:56 AM 19.0000 -147.0000 57° Northeast 532 612 37,000  Level Oakland Oceanic (ODAPS)
Sat 05:42:00 AM 19.0000 -147.0000 57° Northeast 549 632 37,000  Level FlightAware Transoceanic
Sat 05:43:00 AM 19.0829 -146.8674 57° Northeast 549 632 37,000  Level FlightAware Transoceanic
Sat 05:44:00 AM 19.1657 -146.7346 57° Northeast 549 632 37,000  Level FlightAware Transoceanic
Sat 05:45:00 AM 19.2484 -146.6017 57° Northeast 549 632 37,000  Level FlightAware Transoceanic
Sat 05:46:00 AM 19.3311 -146.4687 57° Northeast 549 632 37,000  Level FlightAware Transoceanic
Sat 05:47:00 AM 19.4136 -146.3356 57° Northeast 549 632 37,000  Level FlightAware Transoceanic
Sat 05:48:00 AM 19.4960 -146.2023 57° Northeast 532 612 37,000  Level FlightAware Transoceanic
Sat 05:48:31 AM 19.5167 -146.1667 57° Northeast 527 606 37,000  Level Oakland Oceanic (ODAPS)
Sat 05:49:00 AM 19.5783 -146.0688 57° Northeast 532 612 37,000  Level FlightAware Transoceanic
Sat 05:50:00 AM 19.6606 -145.9353 57° Northeast 532 612 37,000  Level FlightAware Transoceanic
Sat 05:51:00 AM 19.7427 -145.8016 57° Northeast 532 612 37,000  Level FlightAware Transoceanic
Sat 05:52:00 AM 19.8247 -145.6678 57° Northeast 532 612 37,000  Level FlightAware Transoceanic
Sat 05:53:00 AM 19.9067 -145.5338 57° Northeast 532 612 37,000  Level FlightAware Transoceanic
Sat 05:54:00 AM 19.9898 -145.3957 57° Northeast 527 606 37,000  Level FlightAware Transoceanic
Sat 05:55:00 AM 20.0683 -145.2668 57° Northeast 527 606 37,000  Level FlightAware Transoceanic
Sat 05:56:00 AM 20.1468 -145.1377 57° Northeast 527 606 37,000  Level FlightAware Transoceanic
Sat 05:57:00 AM 20.2251 -145.0085 57° Northeast 527 606 37,000  Level FlightAware Transoceanic
Sat 05:58:00 AM 20.3034 -144.8792 57° Northeast 527 606 37,000  Level FlightAware Transoceanic
Sat 05:59:00 AM 20.3815 -144.7497 57° Northeast 527 606 37,000  Level FlightAware Transoceanic
Sat 06:00:00 AM 20.4596 -144.6201 57° Northeast 527 606 37,000  Level FlightAware Transoceanic
Sat 06:01:00 AM 20.5376 -144.4904 57° Northeast 527 606 37,000  Level FlightAware Transoceanic
Sat 06:02:00 AM 20.6154 -144.3606 57° Northeast 527 606 37,000  Level FlightAware Transoceanic
Sat 06:02:14 AM 20.6333 -144.3500 58° Northeast 527 606 37,000  Level Oakland Oceanic (ODAPS)
Sat 06:03:00 AM 20.6932 -144.2306 57° Northeast 527 606 37,000  Level FlightAware Transoceanic
Sat 06:04:00 AM 20.7709 -144.1005 57° Northeast 527 606 37,000  Level FlightAware Transoceanic
Sat 06:05:00 AM 20.8485 -143.9702 58° Northeast 527 606 37,000  Level FlightAware Transoceanic
Sat 06:06:00 AM 20.9259 -143.8398 58° Northeast 527 606 37,000  Level FlightAware Transoceanic
Sat 06:07:00 AM 21.0033 -143.7093 58° Northeast 527 606 37,000  Level FlightAware Transoceanic
Sat 06:08:00 AM 21.0925 -143.5715 58° Northeast 527 606 37,000  Level FlightAware Transoceanic
Sat 06:09:00 AM 21.1687 -143.4413 58° Northeast 527 606 37,000  Level FlightAware Transoceanic
Sat 06:10:00 AM 21.2448 -143.3109 58° Northeast 527 606 37,000  Level FlightAware Transoceanic
Sat 06:11:00 AM 21.3207 -143.1805 58° Northeast 527 606 37,000  Level FlightAware Transoceanic
Sat 06:12:00 AM 21.3966 -143.0499 58° Northeast 527 606 37,000  Level FlightAware Transoceanic
Sat 06:13:00 AM 21.4724 -142.9191 58° Northeast 527 606 37,000  Level FlightAware Transoceanic
Sat 06:14:00 AM 21.5481 -142.7882 58° Northeast 527 606 37,000  Level FlightAware Transoceanic
Sat 06:15:00 AM 21.6237 -142.6572 58° Northeast 527 606 37,000  Level FlightAware Transoceanic
Sat 06:16:00 AM 21.6991 -142.5260 58° Northeast 527 606 37,000  Level FlightAware Transoceanic
Sat 06:16:06 AM 21.7167 -142.5000 59° Northeast 533 613 37,000  Level Oakland Oceanic (ODAPS)
Sat 06:17:00 AM 21.7745 -142.3947 58° Northeast 527 606 37,000  Level FlightAware Transoceanic
Sat 06:18:00 AM 21.8498 -142.2633 58° Northeast 527 606 37,000  Level FlightAware Transoceanic
Sat 06:19:00 AM 21.9249 -142.1317 58° Northeast 527 606 37,000  Level FlightAware Transoceanic
Sat 06:19:51 AM 22.0000 -142.0000 57° Northeast 527 606 37,000  Level Oakland Oceanic (ODAPS)
Sat 06:20:00 AM 22.0000 -142.0000 57° Northeast 527 606 37,000  Level FlightAware Transoceanic
Sat 06:21:00 AM 22.0830 -141.8642 57° Northeast 527 606 37,000  Level FlightAware Transoceanic
Sat 06:22:00 AM 22.1659 -141.7281 57° Northeast 533 613 37,000  Level FlightAware Transoceanic
Sat 06:23:00 AM 22.2486 -141.5920 57° Northeast 533 613 37,000  Level FlightAware Transoceanic
Sat 06:24:00 AM 22.3313 -141.4556 57° Northeast 533 613 37,000  Level FlightAware Transoceanic
Sat 06:25:00 AM 22.4138 -141.3192 57° Northeast 533 613 37,000  Level FlightAware Transoceanic
Sat 06:26:00 AM 22.4866 -141.1986 57° Northeast 527 606 37,000  Level FlightAware Transoceanic
Sat 06:27:00 AM 22.5673 -141.0645 57° Northeast 527 606 37,000  Level FlightAware Transoceanic
Sat 06:28:00 AM 22.6479 -140.9302 57° Northeast 527 606 37,000  Level FlightAware Transoceanic
Sat 06:29:00 AM 22.7284 -140.7958 57° Northeast 527 606 37,000  Level FlightAware Transoceanic
Sat 06:29:58 AM 22.8167 -140.6500 57° Northeast 529 609 37,000  Level Oakland Oceanic (ODAPS)
Sat 06:30:00 AM 22.8088 -140.6612 57° Northeast 527 606 37,000  Level FlightAware Transoceanic
Sat 06:31:00 AM 22.8890 -140.5265 57° Northeast 527 606 37,000  Level FlightAware Transoceanic
Sat 06:32:00 AM 22.9692 -140.3916 57° Northeast 527 606 37,000  Level FlightAware Transoceanic
Sat 06:33:00 AM 23.0492 -140.2565 57° Northeast 527 606 37,000  Level FlightAware Transoceanic
Sat 06:34:00 AM 23.1291 -140.1213 57° Northeast 527 606 37,000  Level FlightAware Transoceanic
Sat 06:35:00 AM 23.2089 -139.9859 57° Northeast 527 606 37,000  Level FlightAware Transoceanic
Sat 06:36:00 AM 23.2953 -139.8407 57° Northeast 529 609 37,000  Level FlightAware Transoceanic
Sat 06:37:00 AM 23.3747 -139.7053 57° Northeast 529 609 37,000  Level FlightAware Transoceanic
Sat 06:38:00 AM 23.4540 -139.5697 58° Northeast 529 609 37,000  Level FlightAware Transoceanic
Sat 06:39:00 AM 23.5331 -139.4339 58° Northeast 529 609 37,000  Level FlightAware Transoceanic
Sat 06:40:00 AM 23.6121 -139.2979 58° Northeast 529 609 37,000  Level FlightAware Transoceanic
Sat 06:41:00 AM 23.6910 -139.1618 58° Northeast 529 609 37,000  Level FlightAware Transoceanic
Sat 06:42:00 AM 23.7698 -139.0256 58° Northeast 529 609 37,000  Level FlightAware Transoceanic
Sat 06:43:00 AM 23.8485 -138.8892 58° Northeast 529 609 37,000  Level FlightAware Transoceanic
Sat 06:43:50 AM 23.9000 -138.8000 58° Northeast 525 604 37,000  Level Oakland Oceanic (ODAPS)
Sat 06:44:00 AM 23.9270 -138.7526 58° Northeast 529 609 37,000  Level FlightAware Transoceanic
Sat 06:45:00 AM 24.0054 -138.6158 58° Northeast 529 609 37,000  Level FlightAware Transoceanic
Sat 06:46:00 AM 24.0837 -138.4789 58° Northeast 529 609 37,000  Level FlightAware Transoceanic
Sat 06:47:00 AM 24.1619 -138.3418 58° Northeast 529 609 37,000  Level FlightAware Transoceanic
Sat 06:48:00 AM 24.2400 -138.2045 58° Northeast 529 609 37,000  Level FlightAware Transoceanic
Sat 06:49:00 AM 24.3179 -138.0671 58° Northeast 529 609 37,000  Level FlightAware Transoceanic
Sat 06:50:00 AM 24.3749 -137.9667 58° Northeast 525 604 37,000  Level FlightAware Transoceanic
Sat 06:51:00 AM 24.4536 -137.8272 58° Northeast 525 604 37,000  Level FlightAware Transoceanic
Sat 06:52:00 AM 24.5322 -137.6875 58° Northeast 525 604 37,000  Level FlightAware Transoceanic
Sat 06:53:00 AM 24.6106 -137.5477 58° Northeast 525 604 37,000  Level FlightAware Transoceanic
Sat 06:54:00 AM 24.6890 -137.4077 58° Northeast 525 604 37,000  Level FlightAware Transoceanic
Sat 06:55:00 AM 24.7672 -137.2675 58° Northeast 525 604 37,000  Level FlightAware Transoceanic
Sat 06:56:00 AM 24.8452 -137.1271 59° Northeast 525 604 37,000  Level FlightAware Transoceanic
Sat 06:57:00 AM 24.9231 -136.9866 59° Northeast 525 604 37,000  Level FlightAware Transoceanic
Sat 06:57:43 AM 24.9667 -136.9000 59° Northeast 528 608 37,000  Level Oakland Oceanic (ODAPS)
Sat 06:58:00 AM 25.0009 -136.8458 59° Northeast 525 604 37,000  Level FlightAware Transoceanic
Sat 06:59:00 AM 25.0786 -136.7049 59° Northeast 525 604 37,000  Level FlightAware Transoceanic
Sat 07:00:00 AM 25.1561 -136.5638 59° Northeast 525 604 37,000  Level FlightAware Transoceanic
Sat 07:01:00 AM 25.2335 -136.4226 59° Northeast 525 604 37,000  Level FlightAware Transoceanic
Sat 07:02:00 AM 25.3108 -136.2811 59° Northeast 525 604 37,000  Level FlightAware Transoceanic
Sat 07:03:00 AM 25.3670 -136.1731 59° Northeast 528 608 37,000  Level FlightAware Transoceanic
Sat 07:04:00 AM 25.4466 -136.0271 59° Northeast 528 608 37,000  Level FlightAware Transoceanic
Sat 07:05:00 AM 25.5261 -135.8810 59° Northeast 528 608 37,000  Level FlightAware Transoceanic
Sat 07:06:00 AM 25.6055 -135.7346 59° Northeast 528 608 37,000  Level FlightAware Transoceanic
Sat 07:07:00 AM 25.6847 -135.5881 59° Northeast 528 608 37,000  Level FlightAware Transoceanic
Sat 07:08:00 AM 25.7637 -135.4414 59° Northeast 528 608 37,000  Level FlightAware Transoceanic
Sat 07:09:00 AM 25.8426 -135.2944 59° Northeast 528 608 37,000  Level FlightAware Transoceanic
Sat 07:10:00 AM 25.9214 -135.1473 59° Northeast 528 608 37,000  Level FlightAware Transoceanic
Sat 07:11:00 AM 26.0000 -135.0000 55° Northeast 528 608 37,000  Level FlightAware Transoceanic
Sat 07:11:32 AM 26.0000 -135.0000 55° Northeast 531 611 37,000  Level Oakland Oceanic (ODAPS)
Sat 07:11:40 AM 26.0000 -135.0000 55° Northeast 530 610 37,000  Level Oakland Oceanic (ODAPS)
Sat 07:12:00 AM 26.0857 -134.8647 55° Northeast 528 608 37,000  Level FlightAware Transoceanic
Sat 07:13:00 AM 26.1712 -134.7292 55° Northeast 528 608 37,000  Level FlightAware Transoceanic
Sat 07:14:00 AM 26.2567 -134.5936 55° Northeast 528 608 37,000  Level FlightAware Transoceanic
Sat 07:15:00 AM 26.3420 -134.4577 55° Northeast 528 608 37,000  Level FlightAware Transoceanic
Sat 07:16:00 AM 26.4271 -134.3216 55° Northeast 528 608 37,000  Level FlightAware Transoceanic
Sat 07:17:00 AM 26.4984 -134.2075 55° Northeast 530 610 37,000  Level FlightAware Transoceanic
Sat 07:18:00 AM 26.5810 -134.0747 55° Northeast 530 610 37,000  Level FlightAware Transoceanic
Sat 07:19:00 AM 26.6635 -133.9418 55° Northeast 530 610 37,000  Level FlightAware Transoceanic
Sat 07:20:00 AM 26.7459 -133.8086 55° Northeast 530 610 37,000  Level FlightAware Transoceanic
Sat 07:21:00 AM 26.8282 -133.6753 55° Northeast 530 610 37,000  Level FlightAware Transoceanic
Sat 07:22:00 AM 26.9103 -133.5418 55° Northeast 530 610 37,000  Level FlightAware Transoceanic
Sat 07:23:00 AM 26.9923 -133.4081 55° Northeast 530 610 37,000  Level FlightAware Transoceanic
Sat 07:24:00 AM 27.0742 -133.2741 56° Northeast 530 610 37,000  Level FlightAware Transoceanic
Sat 07:25:00 AM 27.1560 -133.1400 56° Northeast 530 610 37,000  Level FlightAware Transoceanic
Sat 07:25:26 AM 27.1667 -133.1167 56° Northeast 532 612 37,000  Level Oakland Oceanic (ODAPS)
Sat 07:26:00 AM 27.2376 -133.0057 56° Northeast 530 610 37,000  Level FlightAware Transoceanic
Sat 07:27:00 AM 27.3192 -132.8712 56° Northeast 530 610 37,000  Level FlightAware Transoceanic
Sat 07:28:00 AM 27.4005 -132.7365 56° Northeast 530 610 37,000  Level FlightAware Transoceanic
Sat 07:29:00 AM 27.4818 -132.6016 56° Northeast 530 610 37,000  Level FlightAware Transoceanic
Sat 07:30:00 AM 27.5629 -132.4665 56° Northeast 530 610 37,000  Level FlightAware Transoceanic
Sat 07:31:00 AM 27.6517 -132.3138 56° Northeast 532 612 37,000  Level FlightAware Transoceanic
Sat 07:32:00 AM 27.7320 -132.1793 56° Northeast 532 612 37,000  Level FlightAware Transoceanic
Sat 07:33:00 AM 27.8123 -132.0446 56° Northeast 532 612 37,000  Level FlightAware Transoceanic
Sat 07:34:00 AM 27.8924 -131.9097 56° Northeast 532 612 37,000  Level FlightAware Transoceanic
Sat 07:35:00 AM 27.9724 -131.7746 56° Northeast 532 612 37,000  Level FlightAware Transoceanic
Sat 07:36:00 AM 28.0523 -131.6394 56° Northeast 532 612 37,000  Level FlightAware Transoceanic
Sat 07:37:00 AM 28.1320 -131.5039 56° Northeast 532 612 37,000  Level FlightAware Transoceanic
Sat 07:38:00 AM 28.2116 -131.3682 56° Northeast 532 612 37,000  Level FlightAware Transoceanic
Sat 07:39:00 AM 28.2910 -131.2323 56° Northeast 532 612 37,000  Level FlightAware Transoceanic
Sat 07:39:18 AM 28.3167 -131.2000 57° Northeast 535 616 37,000  Level Oakland Oceanic (ODAPS)
Sat 07:40:00 AM 28.3703 -131.0962 57° Northeast 532 612 37,000  Level FlightAware Transoceanic
Sat 07:41:00 AM 28.4495 -130.9599 57° Northeast 532 612 37,000  Level FlightAware Transoceanic
Sat 07:42:00 AM 28.5286 -130.8234 57° Northeast 532 612 37,000  Level FlightAware Transoceanic
Sat 07:43:00 AM 28.6075 -130.6866 57° Northeast 532 612 37,000  Level FlightAware Transoceanic
Sat 07:44:00 AM 28.6863 -130.5497 57° Northeast 532 612 37,000  Level FlightAware Transoceanic
Sat 07:45:00 AM 28.7734 -130.4017 57° Northeast 535 616 37,000  Level FlightAware Transoceanic
Sat 07:46:00 AM 28.8491 -130.2680 57° Northeast 535 616 37,000  Level FlightAware Transoceanic
Sat 07:47:00 AM 28.9246 -130.1341 57° Northeast 535 616 37,000  Level FlightAware Transoceanic
Sat 07:47:48 AM 29.0000 -130.0000 56° Northeast 545 627 37,000  Level Oakland Oceanic (ODAPS)
Sat 07:48:00 AM 29.0000 -130.0000 56° Northeast 535 616 37,000  Level FlightAware Transoceanic
Sat 07:49:00 AM 29.0866 -129.8536 56° Northeast 535 616 37,000  Level FlightAware Transoceanic
Sat 07:50:00 AM 29.1730 -129.7069 56° Northeast 535 616 37,000  Level FlightAware Transoceanic
Sat 07:51:00 AM 29.2592 -129.5600 56° Northeast 535 616 37,000  Level FlightAware Transoceanic
Sat 07:52:00 AM 29.3453 -129.4129 56° Northeast 535 616 37,000  Level FlightAware Transoceanic
Sat 07:53:00 AM 29.4312 -129.2654 56° Northeast 545 627 37,000  Level FlightAware Transoceanic
Sat 07:53:11 AM 29.4500 -129.2333 56° Northeast 549 632 37,000  Level Oakland Oceanic (ODAPS)
Sat 07:54:00 AM 29.5170 -129.1178 56° Northeast 545 627 37,000  Level FlightAware Transoceanic
Sat 07:55:00 AM 29.6026 -128.9699 56° Northeast 545 627 37,000  Level FlightAware Transoceanic
Sat 07:56:00 AM 29.6880 -128.8217 56° Northeast 545 627 37,000  Level FlightAware Transoceanic
Sat 07:57:00 AM 29.7732 -128.6733 57° Northeast 545 627 37,000  Level FlightAware Transoceanic
Sat 07:58:00 AM 29.8583 -128.5246 57° Northeast 545 627 37,000  Level FlightAware Transoceanic
Sat 07:59:00 AM 29.9586 -128.3490 57° Northeast 549 632 37,000  Level FlightAware Transoceanic
Sat 08:00:00 AM 30.0428 -128.2007 57° Northeast 549 632 37,000  Level FlightAware Transoceanic
Sat 08:01:00 AM 30.1268 -128.0522 57° Northeast 549 632 37,000  Level FlightAware Transoceanic
Sat 08:02:00 AM 30.2106 -127.9035 57° Northeast 549 632 37,000  Level FlightAware Transoceanic
Sat 08:03:00 AM 30.2943 -127.7545 57° Northeast 549 632 37,000  Level FlightAware Transoceanic
Sat 08:04:00 AM 30.3778 -127.6052 57° Northeast 549 632 37,000  Level FlightAware Transoceanic
Sat 08:05:00 AM 30.4612 -127.4557 57° Northeast 549 632 37,000  Level FlightAware Transoceanic
Sat 08:06:00 AM 30.5443 -127.3059 57° Northeast 549 632 37,000  Level FlightAware Transoceanic
Sat 08:07:00 AM 30.6273 -127.1558 57° Northeast 549 632 37,000  Level FlightAware Transoceanic
Sat 08:07:03 AM 30.5833 -127.2333 57° Northeast 554 638 37,000  Level Oakland Oceanic (ODAPS)
Sat 08:08:00 AM 30.7102 -127.0055 57° Northeast 549 632 37,000  Level FlightAware Transoceanic
Sat 08:09:00 AM 30.7928 -126.8550 57° Northeast 549 632 37,000  Level FlightAware Transoceanic
Sat 08:10:00 AM 30.8753 -126.7042 58° Northeast 549 632 37,000  Level FlightAware Transoceanic
Sat 08:11:00 AM 30.9576 -126.5531 58° Northeast 549 632 37,000  Level FlightAware Transoceanic
Sat 08:12:00 AM 31.0398 -126.4017 58° Northeast 549 632 37,000  Level FlightAware Transoceanic
Sat 08:13:00 AM 31.0913 -126.3050 58° Northeast 554 638 37,000  Level FlightAware Transoceanic
Sat 08:14:00 AM 31.1753 -126.1493 58° Northeast 554 638 37,000  Level FlightAware Transoceanic
Sat 08:15:00 AM 31.2591 -125.9933 58° Northeast 554 638 37,000  Level FlightAware Transoceanic
Sat 08:16:00 AM 31.3428 -125.8371 58° Northeast 554 638 37,000  Level FlightAware Transoceanic
Sat 08:17:00 AM 31.4262 -125.6806 58° Northeast 554 638 37,000  Level FlightAware Transoceanic
Sat 08:18:00 AM 31.5095 -125.5238 58° Northeast 554 638 37,000  Level FlightAware Transoceanic
Sat 08:19:00 AM 31.5925 -125.3667 58° Northeast 554 638 37,000  Level FlightAware Transoceanic
Sat 08:20:00 AM 31.6754 -125.2094 58° Northeast 554 638 37,000  Level FlightAware Transoceanic
Sat 08:20:54 AM 31.7000 -125.1333 58° Northeast 561 646 37,000  Level Oakland Oceanic (ODAPS)
Sat 08:21:00 AM 31.7581 -125.0517 58° Northeast 554 638 37,000  Level FlightAware Transoceanic
Sat 08:22:00 AM 31.8405 -124.8938 58° Northeast 554 638 37,000  Level FlightAware Transoceanic
Sat 08:23:00 AM 31.9228 -124.7356 59° Northeast 554 638 37,000  Level FlightAware Transoceanic
Sat 08:24:00 AM 32.0049 -124.5771 59° Northeast 554 638 37,000  Level FlightAware Transoceanic
Sat 08:25:00 AM 32.0868 -124.4184 59° Northeast 554 638 37,000  Level FlightAware Transoceanic
Sat 08:25:24 AM 32.0681 -124.4425 77° East 562 647 37,000  Level Los Angeles Center
Sat 08:26:00 AM 32.1685 -124.2593 59° Northeast 554 638 37,000  Level FlightAware Transoceanic
Sat 08:26:14 AM 32.1333 -124.3000 55° Northeast 563 648 37,000  Level Oakland Oceanic (ODAPS)
Sat 08:26:36 AM 32.1447 -124.2825 55° Northeast 562 647 37,000  Level Los Angeles Center
Sat 08:27:00 AM 32.2500 -124.1000 77° East 561 646 37,000  Level FlightAware Transoceanic
Sat 08:27:37 AM 32.2419 -124.0950 58° Northeast 560 644 37,000  Level Los Angeles Center
Sat 08:28:00 AM 32.2868 -123.9170 77° East 561 646 37,000 -100 Level FlightAware Transoceanic
Sat 08:28:37 AM 32.3092 -123.9306 64° Northeast 556 640 36,900  Descending Los Angeles Center
Sat 08:29:00 AM 32.3233 -123.7339 77° East 561 646 37,000 -500 Climbing FlightAware Transoceanic
Sat 08:29:37 AM 32.3644 -123.7606 69° East 552 635 36,400  Descending Los Angeles Center
Sat 08:30:00 AM 32.3595 -123.5507 77° East 561 646 37,000 -500 Climbing FlightAware Transoceanic
Sat 08:30:37 AM 32.4192 -123.5914 69° East 551 634 35,900 -990 Descending Los Angeles Center
Sat 08:31:37 AM 32.4722 -123.4233 69° East 548 631 35,400 -496 Descending Los Angeles Center
Sat 08:32:38 AM 32.5233 -123.2581 70° East 542 624 34,900 -496 Descending Los Angeles Center
Sat 08:33:38 AM 32.5744 -123.0975 69° East 534 615 34,400 -500 Descending Los Angeles Center
Sat 08:34:38 AM 32.6233 -122.9431 69° East 520 598 33,900 -500 Descending Los Angeles Center
Sat 08:35:38 AM 32.6722 -122.7933 69° East 505 581 33,400 -744 Descending Los Angeles Center
Sat 08:36:39 AM 32.7214 -122.6456 68° East 494 568 32,400 -1,041 Descending Los Angeles Center
Sat 08:37:39 AM 32.7706 -122.4964 69° East 489 563 31,300 -950 Descending Los Angeles Center
Sat 08:38:39 AM 32.8197 -122.3464 69° East 489 563 30,500 -650 Descending Los Angeles Center
Sat 08:39:39 AM 32.8664 -122.1972 70° East 486 559 30,000 -250 Descending Los Angeles Center
Sat 08:40:39 AM 32.9119 -122.0506 70° East 481 554 30,000  Level Los Angeles Center
Sat 08:41:40 AM 32.9694 -121.8744 69° East 479 551 30,000  Level Los Angeles Center
Sat 08:47:22 AM 33.2310 -121.0320 69° East 472 543 30,000  Level FlightAware ADS-B
Sat 08:48:07 AM 33.2660 -120.9200 69° East 470 541 30,000  Level FlightAware ADS-B
Sat 08:48:47 AM 33.2930 -120.8360 69° East 470 541 30,000  Level FlightAware ADS-B
Sat 08:49:32 AM 33.3280 -120.7180 70° East 467 537 30,000  Level FlightAware ADS-B
Sat 08:50:27 AM 33.3690 -120.5790 71° East 468 539 30,000 -63 Level FlightAware ADS-B
Sat 08:51:07 AM 33.3960 -120.4920 70° East 463 533 29,900 -75 Descending FlightAware ADS-B
Sat 08:51:47 AM 33.4210 -120.4100 70° East 463 533 29,900 -2,625 Level FlightAware ADS-B
Sat 08:52:27 AM 33.4530 -120.3020 70° East 438 504 26,400 -2,541 Descending FlightAware ADS-B
Sat 08:53:12 AM 33.4810 -120.2080 70° East 438 504 26,300 -2,025 Descending FlightAware ADS-B
Sat 08:53:47 AM 33.5070 -120.1200 70° East 420 483 23,700 -2,100 Descending FlightAware ADS-B
Sat 08:54:52 AM 33.5470 -119.9870 70° East 416 479 22,800 -514 Descending FlightAware ADS-B
Sat 08:55:32 AM 33.5690 -119.9130 70° East 416 479 22,800  Level FlightAware ADS-B
Sat 08:56:12 AM 33.5920 -119.8400 69° East 416 479 22,800  Level FlightAware ADS-B
Sat 08:56:52 AM 33.6140 -119.7660 70° East 416 479 22,800  Level FlightAware ADS-B
Sat 08:57:32 AM 33.6370 -119.6920 70° East 416 479 22,800  Level FlightAware ADS-B
Sat 08:58:12 AM 33.6590 -119.6180 70° East 416 479 22,800 -3,789 Level FlightAware ADS-B
Sat 09:00:42 AM 33.7560 -119.2720 71° East 361 415 10,800 -4,022 Descending FlightAware ADS-B
Sat 09:01:17 AM 33.7720 -119.2160 71° East 344 396 10,400 -400 Descending FlightAware ADS-B
Sat 09:02:12 AM 33.7960 -119.1330 71° East 328 377 10,200 -525 Descending FlightAware ADS-B
Sat 09:02:37 AM 33.8070 -119.0940 71° East 283 326 9,700 -500 Descending FlightAware ADS-B
Sat 09:03:12 AM 33.8220 -119.0450 70° East 283 326 9,700 -1,846 Level FlightAware ADS-B
Sat 09:03:42 AM 33.8380 -118.9820 73° East 267 307 7,700 -2,727 Descending FlightAware ADS-B
Sat 09:04:07 AM 33.8470 -118.9470 73° East 262 302 7,200 -1,200 Descending FlightAware ADS-B
Sat 09:04:37 AM 33.8580 -118.9070 72° East 259 298 6,600 -1,200 Descending FlightAware ADS-B
Sat 09:05:07 AM 33.8690 -118.8650 72° East 255 293 6,000 -982 Descending FlightAware ADS-B
Sat 09:05:32 AM 33.8790 -118.8310 70° East 239 275 5,700 -750 Descending FlightAware ADS-B
Sat 09:05:47 AM 33.8830 -118.8130 75° East 233 268 5,500 -933 Descending FlightAware ADS-B
Sat 09:06:17 AM 33.8930 -118.7770 71° East 226 260 5,000 -1,000 Descending FlightAware ADS-B
Sat 09:06:47 AM 33.9020 -118.7410 73° East 217 250 4,500 -1,200 Descending FlightAware ADS-B
Sat 09:07:02 AM 33.9070 -118.7240 70° East 216 249 4,100 -1,200 Descending FlightAware ADS-B
Sat 09:07:27 AM 33.9150 -118.6960 71° East 204 235 3,700 -655 Descending FlightAware ADS-B
Sat 09:07:57 AM 33.9230 -118.6660 72° East 180 207 3,500 -533 Descending FlightAware ADS-B
Sat 09:08:12 AM 33.9260 -118.6520 76° East 172 198 3,300 -600 Descending FlightAware ADS-B
Sat 09:08:37 AM 33.9290 -118.6280 81° East 169 194 3,100 -436 Descending FlightAware ADS-B
Sat 09:09:07 AM 33.9320 -118.6010 82° East 168 193 2,900 -700 Descending FlightAware ADS-B
Sat 09:09:37 AM 33.9350 -118.5730 83° East 163 188 2,400 -873 Descending FlightAware ADS-B
Sat 09:10:02 AM 33.9370 -118.5490 84° East 161 185 2,100 -720 Descending FlightAware ADS-B
Sat 09:10:27 AM 33.9390 -118.5290 83° East 154 177 1,800 -800 Descending FlightAware ADS-B
Sat 09:10:47 AM 33.9410 -118.5120 82° East 149 171 1,500 -400 Descending FlightAware ADS-B
Sat 09:11:27 AM 33.9420 -118.5050 80° East 149 171 1,400 -462 Descending FlightAware ADS-B
Sat 09:11:52 AM 33.9440 -118.4840 83° East 148 170 1,000 -764 Descending FlightAware ADS-B
Sat 09:12:22 AM 33.9460 -118.4610 84° East 151 174 700 -545 Descending FlightAware ADS-B
Sat 09:12:47 AM 33.9470 -118.4490 84° East 149 171 500 -600 Descending FlightAware ADS-B
Sat 09:13:02 AM 33.9480 -118.4400 82° East 148 170 300 -300 Descending FlightAware ADS-B
Sat 09:13:27 AM 33.9500 -118.4200 83° East 148 170 300  Level FlightAware ADS-B

Login

Don't have an account? Register now (free) for customized features, flight alerts, and more!